ACA3HV CYYZ-LOWW
Flight info
| Callsign | ACA3HV |
|---|---|
| Flight time | N/A |
| Altitude | 35000 |
| Route | IKLEN3 TONNY DCT KAPUX DCT YUY DCT SOCAN DCT 56N073W DCT TUNNI DCT FEDDY DCT IKMAN/M084F350 DCT EMBOK DCT 6450N DCT 6440N DCT 6330N DCT 6320N DCT 6315N DCT 6210N DCT GUNPA/N0483F350 DCT RAMUD DCT BEVRA DCT PIZID DCT GESTO DCT ZUCKA DCT SODRO DCT ARMUT DCT DEXIT DCT VENEN VENEN3W |
| Aircraft | B77W/H-SDE1E2E3FGHIJ2J3J4J5M1RWXY/LB1D1 |
Departure
| Time | N/A |
|---|---|
| Airport | Toronto Pearson International Airport (CYYZ) |
Arrival
| Time | 2026-04-25 22:11 |
|---|---|
| Airport | Vienna International Airport (LOWW) |
| Time | Latitude | Longitude | Altitude | Speed | Heading |
|---|---|---|---|---|---|
| 2026-04-25 13:55 | 45.45642 | -79.65617 | 32529 ft | 506 kts | 6° |
| 2026-04-25 13:55 | 45.49112 | -79.64748 | 32818 ft | 505 kts | 6° |
| 2026-04-25 13:56 | 45.52578 | -79.63878 | 33124 ft | 504 kts | 6° |
| 2026-04-25 13:56 | 45.55989 | -79.63020 | 33411 ft | 504 kts | 6° |
| 2026-04-25 13:56 | 45.59444 | -79.62150 | 33671 ft | 504 kts | 6° |
| 2026-04-25 13:56 | 45.62898 | -79.61279 | 33913 ft | 504 kts | 6° |
| 2026-04-25 13:57 | 45.66351 | -79.60407 | 34142 ft | 504 kts | 6° |
| 2026-04-25 13:57 | 45.68637 | -79.59828 | 34302 ft | 503 kts | 6° |
| 2026-04-25 13:57 | 45.73231 | -79.58664 | 34718 ft | 500 kts | 6° |
| 2026-04-25 13:57 | 45.76649 | -79.57796 | 34940 ft | 499 kts | 6° |
| 2026-04-25 13:58 | 45.80082 | -79.56926 | 34991 ft | 502 kts | 6° |
| 2026-04-25 13:58 | 45.86990 | -79.55172 | 35048 ft | 506 kts | 6° |
| 2026-04-25 13:59 | 45.93922 | -79.53403 | 35067 ft | 505 kts | 6° |
| 2026-04-25 13:59 | 46.00833 | -79.51635 | 35059 ft | 504 kts | 6° |
| 2026-04-25 14:00 | 46.07728 | -79.49867 | 35064 ft | 502 kts | 6° |
| 2026-04-25 14:00 | 46.14562 | -79.48110 | 35078 ft | 501 kts | 6° |
| 2026-04-25 14:01 | 46.21417 | -79.46345 | 35070 ft | 500 kts | 6° |
| 2026-04-25 14:01 | 46.28262 | -79.44578 | 35080 ft | 499 kts | 6° |
| 2026-04-25 14:02 | 46.35094 | -79.42809 | 35068 ft | 499 kts | 6° |
| 2026-04-25 14:02 | 46.41931 | -79.41035 | 35085 ft | 499 kts | 6° |
| 2026-04-25 14:03 | 46.48769 | -79.39256 | 35094 ft | 499 kts | 7° |
| 2026-04-25 14:03 | 46.55611 | -79.37471 | 35087 ft | 499 kts | 7° |
| 2026-04-25 14:04 | 46.62451 | -79.35682 | 35100 ft | 499 kts | 7° |
| 2026-04-25 14:04 | 46.69289 | -79.33888 | 35112 ft | 499 kts | 7° |
| 2026-04-25 14:05 | 46.76082 | -79.32102 | 35107 ft | 499 kts | 7° |
| 2026-04-25 14:05 | 46.82917 | -79.30299 | 35107 ft | 498 kts | 7° |
| 2026-04-25 14:06 | 46.89752 | -79.28494 | 35122 ft | 497 kts | 7° |
| 2026-04-25 14:06 | 46.96551 | -79.26692 | 35119 ft | 496 kts | 7° |
| 2026-04-25 14:07 | 47.03336 | -79.24889 | 35112 ft | 495 kts | 7° |
| 2026-04-25 14:07 | 47.10104 | -79.23087 | 35128 ft | 493 kts | 7° |
| 2026-04-25 14:08 | 47.16853 | -79.21285 | 35121 ft | 492 kts | 7° |
| 2026-04-25 14:08 | 47.23602 | -79.19479 | 35126 ft | 492 kts | 7° |
| 2026-04-25 14:09 | 47.30298 | -79.17683 | 35141 ft | 492 kts | 7° |
| 2026-04-25 14:09 | 47.37052 | -79.15865 | 35133 ft | 494 kts | 7° |
| 2026-04-25 14:10 | 47.42676 | -79.14349 | 35137 ft | 495 kts | 7° |
| 2026-04-25 14:10 | 47.50604 | -79.12204 | 35141 ft | 496 kts | 7° |
| 2026-04-25 14:11 | 47.57389 | -79.10363 | 35150 ft | 495 kts | 7° |
| 2026-04-25 14:11 | 47.64177 | -79.08518 | 35143 ft | 495 kts | 7° |
| 2026-04-25 14:12 | 47.70897 | -79.06685 | 35153 ft | 493 kts | 7° |
| 2026-04-25 14:12 | 47.77641 | -79.04841 | 35145 ft | 491 kts | 7° |
| 2026-04-25 14:13 | 47.84356 | -79.03000 | 35145 ft | 488 kts | 7° |
| 2026-04-25 14:13 | 47.91021 | -79.01168 | 35153 ft | 486 kts | 7° |
| 2026-04-25 14:14 | 47.97657 | -78.99341 | 35167 ft | 484 kts | 7° |
| 2026-04-25 14:14 | 48.04266 | -78.97516 | 35153 ft | 482 kts | 7° |
| 2026-04-25 14:15 | 48.10858 | -78.95690 | 35157 ft | 481 kts | 7° |
| 2026-04-25 14:15 | 48.17404 | -78.93664 | 35157 ft | 482 kts | 13° |
| 2026-04-25 14:16 | 48.23647 | -78.90157 | 35163 ft | 483 kts | 20° |
| 2026-04-25 14:16 | 48.29839 | -78.86233 | 35155 ft | 483 kts | 20° |
| 2026-04-25 14:17 | 48.36034 | -78.82324 | 35161 ft | 482 kts | 20° |
| 2026-04-25 14:17 | 48.42234 | -78.78449 | 35167 ft | 483 kts | 20° |
| 2026-04-25 14:18 | 48.48453 | -78.74572 | 35174 ft | 483 kts | 20° |
| 2026-04-25 14:18 | 48.54674 | -78.70685 | 35189 ft | 483 kts | 19° |
| 2026-04-25 14:19 | 48.60888 | -78.66790 | 35177 ft | 483 kts | 19° |
| 2026-04-25 14:19 | 48.67095 | -78.62883 | 35189 ft | 482 kts | 19° |
| 2026-04-25 14:20 | 48.73235 | -78.59012 | 35181 ft | 480 kts | 19° |
| 2026-04-25 14:20 | 48.79383 | -78.55131 | 35176 ft | 477 kts | 19° |
| 2026-04-25 14:21 | 48.85506 | -78.51252 | 35187 ft | 475 kts | 19° |
| 2026-04-25 14:21 | 48.91602 | -78.47378 | 35190 ft | 474 kts | 19° |
| 2026-04-25 14:22 | 48.97683 | -78.43503 | 35200 ft | 473 kts | 19° |
| 2026-04-25 14:22 | 49.03753 | -78.39626 | 35191 ft | 473 kts | 19° |
| 2026-04-25 14:23 | 49.09813 | -78.35745 | 35194 ft | 472 kts | 19° |
| 2026-04-25 14:23 | 49.15829 | -78.31881 | 35210 ft | 471 kts | 19° |
| 2026-04-25 14:24 | 49.21865 | -78.27995 | 35203 ft | 471 kts | 19° |
| 2026-04-25 14:24 | 49.27904 | -78.24097 | 35194 ft | 470 kts | 19° |
| 2026-04-25 14:25 | 49.33931 | -78.20196 | 35197 ft | 469 kts | 19° |
| 2026-04-25 14:25 | 49.39952 | -78.16286 | 35217 ft | 469 kts | 19° |
| 2026-04-25 14:26 | 49.45923 | -78.12401 | 35215 ft | 468 kts | 19° |
| 2026-04-25 14:26 | 49.51922 | -78.08487 | 35206 ft | 467 kts | 19° |
| 2026-04-25 14:27 | 49.57911 | -78.04569 | 35226 ft | 467 kts | 18° |
| 2026-04-25 14:27 | 49.63880 | -78.00653 | 35213 ft | 466 kts | 18° |
| 2026-04-25 14:28 | 49.69854 | -77.96724 | 35212 ft | 466 kts | 18° |
| 2026-04-25 14:28 | 49.74812 | -77.93454 | 35212 ft | 466 kts | 19° |
| 2026-04-25 14:29 | 49.80783 | -77.89508 | 35236 ft | 466 kts | 18° |
| 2026-04-25 14:29 | 49.86756 | -77.85549 | 35219 ft | 466 kts | 18° |
| 2026-04-25 14:30 | 49.91712 | -77.82257 | 35219 ft | 466 kts | 18° |
| 2026-04-25 14:30 | 50.01668 | -77.75619 | 35247 ft | 466 kts | 19° |
| 2026-04-25 14:31 | 50.07599 | -77.71651 | 35234 ft | 467 kts | 19° |
| 2026-04-25 14:31 | 50.13565 | -77.67649 | 35230 ft | 467 kts | 19° |
| 2026-04-25 14:32 | 50.19532 | -77.63634 | 35231 ft | 467 kts | 19° |
| 2026-04-25 14:32 | 50.25496 | -77.59613 | 35241 ft | 468 kts | 20° |
| 2026-04-25 14:33 | 50.31483 | -77.55564 | 35238 ft | 469 kts | 20° |
| 2026-04-25 14:33 | 50.37480 | -77.51495 | 35237 ft | 470 kts | 20° |
| 2026-04-25 14:34 | 50.43492 | -77.47406 | 35240 ft | 471 kts | 20° |
| 2026-04-25 14:34 | 50.49463 | -77.43333 | 35240 ft | 472 kts | 20° |
| 2026-04-25 14:35 | 50.55486 | -77.39213 | 35240 ft | 471 kts | 20° |
| 2026-04-25 14:35 | 50.61502 | -77.35087 | 35238 ft | 471 kts | 20° |
| 2026-04-25 14:36 | 50.67502 | -77.30961 | 35251 ft | 471 kts | 21° |
| 2026-04-25 14:36 | 50.73497 | -77.26819 | 35252 ft | 470 kts | 20° |
| 2026-04-25 14:37 | 50.79493 | -77.22677 | 35242 ft | 470 kts | 20° |
| 2026-04-25 14:37 | 50.85482 | -77.18524 | 35247 ft | 469 kts | 20° |
| 2026-04-25 14:38 | 50.91413 | -77.14400 | 35254 ft | 468 kts | 21° |
| 2026-04-25 14:38 | 50.97376 | -77.10241 | 35249 ft | 468 kts | 21° |
| 2026-04-25 14:39 | 51.03334 | -77.06073 | 35259 ft | 468 kts | 21° |
| 2026-04-25 14:39 | 51.09294 | -77.01893 | 35270 ft | 468 kts | 21° |
| 2026-04-25 14:40 | 51.15267 | -76.97692 | 35262 ft | 469 kts | 21° |
| 2026-04-25 14:40 | 51.21203 | -76.93504 | 35265 ft | 470 kts | 21° |
| 2026-04-25 14:41 | 51.27184 | -76.89273 | 35266 ft | 471 kts | 22° |
| 2026-04-25 14:41 | 51.33173 | -76.85026 | 35272 ft | 472 kts | 23° |
| 2026-04-25 14:42 | 51.38165 | -76.81476 | 35270 ft | 472 kts | 23° |
| 2026-04-25 14:42 | 51.45190 | -76.76462 | 35273 ft | 473 kts | 23° |
| 2026-04-25 14:43 | 51.51204 | -76.72158 | 35269 ft | 473 kts | 23° |
| 2026-04-25 14:43 | 51.57209 | -76.67850 | 35282 ft | 472 kts | 24° |
| 2026-04-25 14:44 | 51.63197 | -76.63539 | 35280 ft | 470 kts | 24° |
| 2026-04-25 14:44 | 51.69120 | -76.59263 | 35280 ft | 469 kts | 24° |
| 2026-04-25 14:45 | 51.75061 | -76.54962 | 35291 ft | 467 kts | 24° |
| 2026-04-25 14:45 | 51.80993 | -76.50656 | 35293 ft | 467 kts | 25° |
| 2026-04-25 14:46 | 51.86925 | -76.46337 | 35291 ft | 467 kts | 25° |
| 2026-04-25 14:46 | 51.92846 | -76.42013 | 35294 ft | 467 kts | 25° |
| 2026-04-25 14:47 | 51.97776 | -76.38403 | 35292 ft | 467 kts | 25° |
| 2026-04-25 14:47 | 52.04647 | -76.33359 | 35299 ft | 466 kts | 26° |
| 2026-04-25 14:48 | 52.10553 | -76.29006 | 35300 ft | 465 kts | 26° |
| 2026-04-25 14:48 | 52.16446 | -76.24652 | 35307 ft | 464 kts | 26° |
| 2026-04-25 14:49 | 52.22326 | -76.20297 | 35304 ft | 463 kts | 26° |
| 2026-04-25 14:49 | 52.28184 | -76.15944 | 35304 ft | 462 kts | 27° |
| 2026-04-25 14:50 | 52.34016 | -76.11596 | 35308 ft | 460 kts | 27° |
| 2026-04-25 14:50 | 52.39832 | -76.07249 | 35307 ft | 459 kts | 27° |
| 2026-04-25 14:51 | 52.45639 | -76.02897 | 35308 ft | 458 kts | 28° |
| 2026-04-25 14:51 | 52.51423 | -75.98548 | 35308 ft | 456 kts | 28° |
| 2026-04-25 14:52 | 52.57186 | -75.94202 | 35313 ft | 455 kts | 28° |
| 2026-04-25 14:52 | 52.61969 | -75.90586 | 35317 ft | 454 kts | 28° |
| 2026-04-25 14:53 | 52.68642 | -75.85527 | 35318 ft | 453 kts | 28° |
| 2026-04-25 14:53 | 52.74376 | -75.81164 | 35319 ft | 454 kts | 28° |
| 2026-04-25 14:54 | 52.80111 | -75.76789 | 35323 ft | 454 kts | 28° |
| 2026-04-25 14:54 | 52.85855 | -75.72394 | 35321 ft | 455 kts | 27° |
| 2026-04-25 14:55 | 52.91609 | -75.67981 | 35315 ft | 455 kts | 28° |
| 2026-04-25 14:55 | 52.97348 | -75.63564 | 35317 ft | 454 kts | 28° |
| 2026-04-25 14:56 | 53.03066 | -75.59150 | 35322 ft | 453 kts | 28° |
| 2026-04-25 14:56 | 53.08775 | -75.54730 | 35321 ft | 452 kts | 28° |
| 2026-04-25 14:57 | 53.14433 | -75.50339 | 35331 ft | 449 kts | 30° |
| 2026-04-25 14:57 | 53.20081 | -75.45943 | 35330 ft | 447 kts | 30° |
| 2026-04-25 14:58 | 53.25701 | -75.41554 | 35339 ft | 444 kts | 30° |
| 2026-04-25 14:58 | 53.31286 | -75.37179 | 35326 ft | 442 kts | 30° |
| 2026-04-25 14:59 | 53.36850 | -75.32808 | 35350 ft | 441 kts | 30° |
| 2026-04-25 14:59 | 53.42399 | -75.28437 | 35344 ft | 440 kts | 30° |
| 2026-04-25 15:00 | 53.47936 | -75.24061 | 35348 ft | 439 kts | 30° |
| 2026-04-25 15:00 | 53.53423 | -75.19713 | 35358 ft | 439 kts | 30° |
| 2026-04-25 15:01 | 53.58951 | -75.15320 | 35343 ft | 439 kts | 31° |
| 2026-04-25 15:01 | 53.64457 | -75.10932 | 35348 ft | 437 kts | 31° |
| 2026-04-25 15:02 | 53.69952 | -75.06540 | 35347 ft | 436 kts | 31° |
| 2026-04-25 15:02 | 53.75435 | -75.02145 | 35351 ft | 435 kts | 31° |
| 2026-04-25 15:03 | 53.80855 | -74.97736 | 35344 ft | 434 kts | 32° |
| 2026-04-25 15:03 | 53.86271 | -74.93128 | 35355 ft | 432 kts | 32° |
| 2026-04-25 15:04 | 53.91585 | -74.88566 | 35361 ft | 431 kts | 32° |
| 2026-04-25 15:04 | 53.96946 | -74.83968 | 35364 ft | 430 kts | 32° |
| 2026-04-25 15:05 | 54.02291 | -74.79383 | 35369 ft | 430 kts | 32° |
| 2026-04-25 15:06 | 54.10290 | -74.72505 | 35372 ft | 428 kts | 33° |
| 2026-04-25 15:06 | 54.15606 | -74.67918 | 35369 ft | 428 kts | 33° |
| 2026-04-25 15:07 | 54.20880 | -74.63352 | 35372 ft | 427 kts | 33° |
| 2026-04-25 15:07 | 54.26182 | -74.58749 | 35377 ft | 427 kts | 33° |
| 2026-04-25 15:08 | 54.31478 | -74.54137 | 35380 ft | 426 kts | 33° |
| 2026-04-25 15:08 | 54.36763 | -74.49523 | 35379 ft | 426 kts | 33° |
| 2026-04-25 15:09 | 54.42043 | -74.44900 | 35384 ft | 425 kts | 33° |
| 2026-04-25 15:09 | 54.49944 | -74.37955 | 35390 ft | 425 kts | 33° |
| 2026-04-25 15:10 | 54.55201 | -74.33319 | 35388 ft | 423 kts | 33° |
| 2026-04-25 15:11 | 54.63021 | -74.26396 | 35397 ft | 422 kts | 33° |
| 2026-04-25 15:11 | 54.68242 | -74.21757 | 35400 ft | 421 kts | 34° |
| 2026-04-25 15:12 | 54.76058 | -74.14786 | 35392 ft | 421 kts | 34° |
| 2026-04-25 15:12 | 54.79536 | -74.11675 | 35403 ft | 420 kts | 34° |
| 2026-04-25 15:13 | 54.89038 | -74.03144 | 35425 ft | 419 kts | 33° |
| 2026-04-25 15:14 | 54.94179 | -73.98510 | 35413 ft | 418 kts | 34° |
| 2026-04-25 15:14 | 54.99343 | -73.93841 | 35414 ft | 417 kts | 34° |
| 2026-04-25 15:15 | 55.02780 | -73.90725 | 35414 ft | 416 kts | 34° |
| 2026-04-25 15:15 | 55.08745 | -73.85303 | 35420 ft | 416 kts | 34° |
| 2026-04-25 15:16 | 55.13873 | -73.80628 | 35418 ft | 415 kts | 34° |
| 2026-04-25 15:16 | 55.21557 | -73.73596 | 35418 ft | 416 kts | 34° |
| 2026-04-25 15:17 | 55.29239 | -73.66536 | 35428 ft | 416 kts | 34° |
| 2026-04-25 15:18 | 55.34369 | -73.61803 | 35441 ft | 416 kts | 34° |
| 2026-04-25 15:18 | 55.42062 | -73.54681 | 35448 ft | 417 kts | 34° |
| 2026-04-25 15:19 | 55.46329 | -73.50717 | 35424 ft | 416 kts | 34° |
| 2026-04-25 15:19 | 55.52277 | -73.45176 | 35451 ft | 416 kts | 34° |
| 2026-04-25 15:20 | 55.57400 | -73.40386 | 35455 ft | 416 kts | 34° |
| 2026-04-25 15:20 | 55.62519 | -73.35587 | 35467 ft | 417 kts | 34° |
| 2026-04-25 15:21 | 55.67648 | -73.30763 | 35462 ft | 417 kts | 34° |
| 2026-04-25 15:21 | 55.72772 | -73.25930 | 35469 ft | 417 kts | 34° |
| 2026-04-25 15:22 | 55.77907 | -73.21073 | 35461 ft | 418 kts | 34° |
| 2026-04-25 15:22 | 55.83032 | -73.16209 | 35475 ft | 418 kts | 34° |
| 2026-04-25 15:23 | 55.88163 | -73.11326 | 35480 ft | 418 kts | 34° |
| 2026-04-25 15:23 | 55.93294 | -73.06427 | 35480 ft | 418 kts | 34° |
| 2026-04-25 15:24 | 55.98392 | -73.01549 | 35485 ft | 419 kts | 33° |
| 2026-04-25 15:24 | 56.02883 | -72.97982 | 35492 ft | 424 kts | 26° |
| 2026-04-25 15:25 | 56.09332 | -72.93732 | 35495 ft | 425 kts | 26° |
| 2026-04-25 15:25 | 56.14884 | -72.90047 | 35486 ft | 425 kts | 26° |
| 2026-04-25 15:26 | 56.20425 | -72.86336 | 35479 ft | 425 kts | 26° |
| 2026-04-25 15:26 | 56.25968 | -72.82602 | 35494 ft | 425 kts | 26° |
| 2026-04-25 15:27 | 56.31508 | -72.78856 | 35493 ft | 426 kts | 26° |
| 2026-04-25 15:28 | 56.39826 | -72.73208 | 35505 ft | 426 kts | 26° |
| 2026-04-25 15:28 | 56.45373 | -72.69428 | 35489 ft | 426 kts | 26° |
| 2026-04-25 15:29 | 56.50912 | -72.65641 | 35502 ft | 426 kts | 26° |
| 2026-04-25 15:29 | 56.56456 | -72.61840 | 35510 ft | 426 kts | 26° |
| 2026-04-25 15:30 | 56.61997 | -72.58029 | 35511 ft | 426 kts | 26° |
| 2026-04-25 15:30 | 56.67538 | -72.54205 | 35513 ft | 426 kts | 26° |
| 2026-04-25 15:31 | 56.73073 | -72.50373 | 35507 ft | 426 kts | 26° |
| 2026-04-25 15:31 | 56.78615 | -72.46525 | 35515 ft | 426 kts | 26° |
| 2026-04-25 15:32 | 56.84116 | -72.42692 | 35520 ft | 426 kts | 26° |
| 2026-04-25 15:32 | 56.89659 | -72.38819 | 35517 ft | 426 kts | 26° |
| 2026-04-25 15:33 | 56.97977 | -72.32983 | 35513 ft | 427 kts | 25° |
| 2026-04-25 15:33 | 57.03524 | -72.29075 | 35527 ft | 427 kts | 25° |
| 2026-04-25 15:34 | 57.09082 | -72.25147 | 35527 ft | 428 kts | 25° |
| 2026-04-25 15:34 | 57.13703 | -72.21872 | 35527 ft | 428 kts | 25° |
| 2026-04-25 15:35 | 57.22988 | -72.15265 | 35519 ft | 429 kts | 25° |
| 2026-04-25 15:36 | 57.31297 | -72.09322 | 35535 ft | 429 kts | 25° |
| 2026-04-25 15:36 | 57.36860 | -72.05326 | 35534 ft | 429 kts | 25° |
| 2026-04-25 15:37 | 57.42431 | -72.01312 | 35542 ft | 429 kts | 25° |
| 2026-04-25 15:37 | 57.47998 | -71.97288 | 35543 ft | 429 kts | 25° |
| 2026-04-25 15:38 | 57.53565 | -71.93250 | 35538 ft | 429 kts | 25° |
| 2026-04-25 15:38 | 57.59138 | -71.89196 | 35538 ft | 429 kts | 25° |
| 2026-04-25 15:39 | 57.64695 | -71.85139 | 35542 ft | 429 kts | 25° |
| 2026-04-25 15:39 | 57.70256 | -71.81065 | 35542 ft | 429 kts | 25° |
| 2026-04-25 15:40 | 57.73936 | -71.78362 | 35532 ft | 429 kts | 25° |
| 2026-04-25 15:40 | 57.81332 | -71.72911 | 35546 ft | 429 kts | 25° |
| 2026-04-25 15:41 | 57.86888 | -71.68801 | 35547 ft | 429 kts | 25° |
| 2026-04-25 15:41 | 57.92447 | -71.64675 | 35547 ft | 429 kts | 25° |
| 2026-04-25 15:42 | 57.98010 | -71.60532 | 35553 ft | 430 kts | 25° |
| 2026-04-25 15:42 | 58.03575 | -71.56373 | 35550 ft | 430 kts | 25° |
| 2026-04-25 15:43 | 58.09141 | -71.52200 | 35551 ft | 431 kts | 25° |
| 2026-04-25 15:43 | 58.14716 | -71.48006 | 35555 ft | 431 kts | 25° |
| 2026-04-25 15:44 | 58.20270 | -71.43815 | 35557 ft | 432 kts | 25° |
| 2026-04-25 15:44 | 58.25861 | -71.39581 | 35550 ft | 432 kts | 25° |
| 2026-04-25 15:45 | 58.31442 | -71.35339 | 35554 ft | 432 kts | 25° |
| 2026-04-25 15:45 | 58.35179 | -71.32491 | 35563 ft | 432 kts | 25° |
| 2026-04-25 15:46 | 58.42620 | -71.26800 | 35565 ft | 432 kts | 25° |
| 2026-04-25 15:46 | 58.48171 | -71.22538 | 35559 ft | 433 kts | 25° |
| 2026-04-25 15:47 | 58.53759 | -71.18234 | 35558 ft | 432 kts | 24° |
| 2026-04-25 15:47 | 58.59343 | -71.13917 | 35568 ft | 433 kts | 24° |
| 2026-04-25 15:48 | 58.64927 | -71.09585 | 35569 ft | 433 kts | 24° |
| 2026-04-25 15:48 | 58.70513 | -71.05237 | 35572 ft | 433 kts | 24° |
| 2026-04-25 15:49 | 58.76105 | -71.00868 | 35575 ft | 433 kts | 24° |
| 2026-04-25 15:49 | 58.81690 | -70.96487 | 35572 ft | 433 kts | 24° |
| 2026-04-25 15:50 | 58.87265 | -70.92104 | 35573 ft | 433 kts | 24° |
| 2026-04-25 15:50 | 58.92809 | -70.87729 | 35578 ft | 433 kts | 24° |
| 2026-04-25 15:51 | 58.96541 | -70.84774 | 35581 ft | 433 kts | 24° |
| 2026-04-25 15:51 | 59.03960 | -70.78880 | 35571 ft | 433 kts | 24° |
| 2026-04-25 15:52 | 59.09527 | -70.74439 | 35585 ft | 433 kts | 24° |
| 2026-04-25 15:52 | 59.15106 | -70.69974 | 35585 ft | 432 kts | 24° |
| 2026-04-25 15:53 | 59.20671 | -70.65503 | 35584 ft | 433 kts | 24° |
| 2026-04-25 15:53 | 59.26202 | -70.61044 | 35585 ft | 433 kts | 24° |
| 2026-04-25 15:54 | 59.31768 | -70.56539 | 35579 ft | 433 kts | 23° |
| 2026-04-25 15:54 | 59.37334 | -70.52020 | 35588 ft | 433 kts | 23° |
| 2026-04-25 15:55 | 59.42903 | -70.47483 | 35590 ft | 433 kts | 23° |
| 2026-04-25 15:55 | 59.48470 | -70.42931 | 35591 ft | 433 kts | 23° |
| 2026-04-25 15:56 | 59.54043 | -70.38357 | 35594 ft | 435 kts | 23° |
| 2026-04-25 15:56 | 59.59676 | -70.33717 | 35600 ft | 441 kts | 23° |
| 2026-04-25 15:57 | 59.65367 | -70.29013 | 35602 ft | 445 kts | 23° |
| 2026-04-25 15:57 | 59.71094 | -70.24261 | 35597 ft | 446 kts | 23° |
| 2026-04-25 15:58 | 59.76785 | -70.19521 | 35596 ft | 446 kts | 23° |
| 2026-04-25 15:58 | 59.82490 | -70.14752 | 35594 ft | 444 kts | 23° |
| 2026-04-25 15:59 | 59.88174 | -70.09982 | 35594 ft | 442 kts | 22° |
| 2026-04-25 15:59 | 59.93843 | -70.05209 | 35599 ft | 441 kts | 22° |
| 2026-04-25 16:00 | 59.97593 | -70.01908 | 35603 ft | 440 kts | 26° |
| 2026-04-25 16:00 | 60.04386 | -69.92956 | 35617 ft | 441 kts | 38° |
| 2026-04-25 16:01 | 60.08315 | -69.86436 | 35621 ft | 441 kts | 38° |
| 2026-04-25 16:01 | 60.13036 | -69.78531 | 35612 ft | 443 kts | 38° |
| 2026-04-25 16:02 | 60.17780 | -69.70603 | 35619 ft | 444 kts | 38° |
| 2026-04-25 16:02 | 60.22534 | -69.62660 | 35619 ft | 445 kts | 38° |
| 2026-04-25 16:03 | 60.27298 | -69.54681 | 35616 ft | 445 kts | 38° |
| 2026-04-25 16:03 | 60.32065 | -69.46664 | 35617 ft | 446 kts | 38° |
| 2026-04-25 16:04 | 60.36826 | -69.38627 | 35633 ft | 446 kts | 38° |
| 2026-04-25 16:04 | 60.41556 | -69.30608 | 35629 ft | 446 kts | 38° |
| 2026-04-25 16:05 | 60.46308 | -69.22521 | 35624 ft | 445 kts | 38° |
| 2026-04-25 16:06 | 60.53402 | -69.10390 | 35628 ft | 444 kts | 38° |
| 2026-04-25 16:06 | 60.58117 | -69.02287 | 35628 ft | 444 kts | 38° |
| 2026-04-25 16:07 | 60.62831 | -68.94153 | 35629 ft | 444 kts | 38° |
| 2026-04-25 16:07 | 60.67551 | -68.85978 | 35633 ft | 446 kts | 38° |
| 2026-04-25 16:08 | 60.72279 | -68.77755 | 35629 ft | 447 kts | 38° |
| 2026-04-25 16:08 | 60.77013 | -68.69487 | 35628 ft | 448 kts | 38° |
| 2026-04-25 16:09 | 60.81724 | -68.61227 | 35631 ft | 448 kts | 38° |
| 2026-04-25 16:09 | 60.86463 | -68.52884 | 35629 ft | 449 kts | 37° |
| 2026-04-25 16:10 | 60.91205 | -68.44503 | 35631 ft | 450 kts | 38° |
| 2026-04-25 16:10 | 60.95945 | -68.36089 | 35629 ft | 450 kts | 38° |
| 2026-04-25 16:11 | 61.00685 | -68.27642 | 35629 ft | 450 kts | 38° |
| 2026-04-25 16:11 | 61.05416 | -68.19177 | 35623 ft | 450 kts | 38° |
| 2026-04-25 16:12 | 61.10142 | -68.10682 | 35627 ft | 450 kts | 37° |
| 2026-04-25 16:12 | 61.14872 | -68.02151 | 35617 ft | 451 kts | 37° |
| 2026-04-25 16:13 | 61.19592 | -67.93599 | 35618 ft | 451 kts | 37° |
| 2026-04-25 16:13 | 61.24278 | -67.85076 | 35614 ft | 451 kts | 38° |
| 2026-04-25 16:14 | 61.29004 | -67.76443 | 35616 ft | 451 kts | 38° |
| 2026-04-25 16:14 | 61.33723 | -67.67788 | 35627 ft | 452 kts | 37° |
| 2026-04-25 16:15 | 61.38433 | -67.59110 | 35617 ft | 453 kts | 37° |
| 2026-04-25 16:15 | 61.43152 | -67.50380 | 35616 ft | 453 kts | 37° |
| 2026-04-25 16:16 | 61.47872 | -67.41612 | 35612 ft | 454 kts | 37° |
| 2026-04-25 16:16 | 61.52587 | -67.32815 | 35615 ft | 454 kts | 37° |
| 2026-04-25 16:17 | 61.57275 | -67.24030 | 35606 ft | 455 kts | 37° |
| 2026-04-25 16:17 | 61.61986 | -67.15170 | 35607 ft | 455 kts | 37° |
| 2026-04-25 16:18 | 61.66688 | -67.06229 | 35602 ft | 456 kts | 40° |
| 2026-04-25 16:18 | 61.70701 | -66.95690 | 35616 ft | 465 kts | 52° |
| 2026-04-25 16:19 | 61.73725 | -66.83520 | 35627 ft | 471 kts | 60° |
| 2026-04-25 16:19 | 61.76400 | -66.70969 | 35620 ft | 472 kts | 60° |
| 2026-04-25 16:20 | 61.80446 | -66.51948 | 35618 ft | 474 kts | 59° |
| 2026-04-25 16:21 | 61.84524 | -66.32881 | 35602 ft | 474 kts | 59° |
| 2026-04-25 16:21 | 61.87233 | -66.20142 | 35603 ft | 474 kts | 59° |
| 2026-04-25 16:22 | 61.89928 | -66.07391 | 35604 ft | 473 kts | 60° |
| 2026-04-25 16:22 | 61.92604 | -65.94640 | 35609 ft | 473 kts | 60° |
| 2026-04-25 16:23 | 61.95271 | -65.81862 | 35615 ft | 474 kts | 59° |
| 2026-04-25 16:23 | 61.97937 | -65.69010 | 35612 ft | 475 kts | 59° |
| 2026-04-25 16:24 | 62.00577 | -65.56202 | 35610 ft | 476 kts | 60° |
| 2026-04-25 16:24 | 62.03234 | -65.43226 | 35612 ft | 477 kts | 60° |
| 2026-04-25 16:25 | 62.05869 | -65.30274 | 35601 ft | 476 kts | 60° |
| 2026-04-25 16:25 | 62.08487 | -65.17319 | 35603 ft | 475 kts | 60° |
| 2026-04-25 16:26 | 62.11089 | -65.04370 | 35625 ft | 474 kts | 60° |
| 2026-04-25 16:26 | 62.13684 | -64.91372 | 35605 ft | 476 kts | 60° |
| 2026-04-25 16:27 | 62.16271 | -64.78340 | 35598 ft | 477 kts | 60° |
| 2026-04-25 16:27 | 62.18852 | -64.65248 | 35596 ft | 478 kts | 60° |
| 2026-04-25 16:28 | 62.21424 | -64.52108 | 35602 ft | 479 kts | 60° |
| 2026-04-25 16:28 | 62.23969 | -64.39020 | 35598 ft | 478 kts | 60° |
| 2026-04-25 16:29 | 62.26518 | -64.25828 | 35597 ft | 477 kts | 60° |
| 2026-04-25 16:29 | 62.29046 | -64.12656 | 35594 ft | 476 kts | 60° |
| 2026-04-25 16:30 | 62.31556 | -63.99498 | 35593 ft | 475 kts | 60° |
| 2026-04-25 16:30 | 62.34055 | -63.86310 | 35593 ft | 475 kts | 61° |
| 2026-04-25 16:31 | 62.36533 | -63.73142 | 35590 ft | 475 kts | 61° |
| 2026-04-25 16:31 | 62.39001 | -63.59943 | 35585 ft | 475 kts | 61° |
| 2026-04-25 16:32 | 62.41462 | -63.46693 | 35603 ft | 475 kts | 61° |
| 2026-04-25 16:32 | 62.43911 | -63.33417 | 35604 ft | 477 kts | 61° |
| 2026-04-25 16:33 | 62.46341 | -63.20154 | 35585 ft | 478 kts | 61° |
| 2026-04-25 16:33 | 62.48783 | -63.06739 | 35581 ft | 480 kts | 61° |
| 2026-04-25 16:34 | 62.51355 | -62.93450 | 35581 ft | 477 kts | 58° |
| 2026-04-25 16:34 | 62.54177 | -62.80468 | 35569 ft | 476 kts | 57° |
| 2026-04-25 16:35 | 62.57019 | -62.67470 | 35566 ft | 477 kts | 57° |
| 2026-04-25 16:35 | 62.59829 | -62.54436 | 35570 ft | 477 kts | 58° |
| 2026-04-25 16:36 | 62.62618 | -62.41335 | 35569 ft | 478 kts | 58° |
| 2026-04-25 16:36 | 62.65382 | -62.28252 | 35567 ft | 479 kts | 58° |
| 2026-04-25 16:37 | 62.68152 | -62.15060 | 35559 ft | 479 kts | 58° |
| 2026-04-25 16:37 | 62.70909 | -62.01844 | 35554 ft | 479 kts | 58° |
| 2026-04-25 16:38 | 62.73654 | -61.88606 | 35554 ft | 479 kts | 58° |
| 2026-04-25 16:38 | 62.76392 | -61.75317 | 35551 ft | 479 kts | 58° |
| 2026-04-25 16:39 | 62.79103 | -61.62081 | 35559 ft | 481 kts | 58° |
| 2026-04-25 16:39 | 62.81825 | -61.48701 | 35558 ft | 483 kts | 58° |
| 2026-04-25 16:40 | 62.84547 | -61.35232 | 35539 ft | 484 kts | 58° |
| 2026-04-25 16:40 | 62.87263 | -61.21703 | 35545 ft | 485 kts | 59° |
| 2026-04-25 16:41 | 62.89965 | -61.08149 | 35537 ft | 485 kts | 59° |
| 2026-04-25 16:41 | 62.93992 | -60.87775 | 35534 ft | 484 kts | 59° |
| 2026-04-25 16:42 | 62.96663 | -60.74162 | 35528 ft | 485 kts | 59° |
| 2026-04-25 16:42 | 62.99303 | -60.60611 | 35524 ft | 485 kts | 59° |
| 2026-04-25 16:43 | 63.01951 | -60.46929 | 35514 ft | 486 kts | 59° |
| 2026-04-25 16:43 | 63.04593 | -60.33177 | 35512 ft | 487 kts | 59° |
| 2026-04-25 16:44 | 63.07224 | -60.19390 | 35512 ft | 488 kts | 59° |
| 2026-04-25 16:44 | 63.09840 | -60.05586 | 35539 ft | 489 kts | 59° |
| 2026-04-25 16:45 | 63.12457 | -59.91688 | 35510 ft | 490 kts | 59° |
| 2026-04-25 16:45 | 63.15060 | -59.77759 | 35504 ft | 490 kts | 59° |
| 2026-04-25 16:46 | 63.17215 | -59.66152 | 35502 ft | 490 kts | 59° |
| 2026-04-25 16:46 | 63.19357 | -59.54544 | 35481 ft | 490 kts | 59° |
| 2026-04-25 16:47 | 63.22351 | -59.38208 | 35481 ft | 489 kts | 60° |
| 2026-04-25 16:47 | 63.24900 | -59.24192 | 35525 ft | 489 kts | 59° |
| 2026-04-25 16:48 | 63.27424 | -59.10224 | 35489 ft | 491 kts | 59° |
| 2026-04-25 16:48 | 63.29963 | -58.96065 | 35473 ft | 493 kts | 60° |
| 2026-04-25 16:49 | 63.32491 | -58.81863 | 35466 ft | 494 kts | 60° |
| 2026-04-25 16:49 | 63.35006 | -58.67621 | 35461 ft | 494 kts | 60° |
| 2026-04-25 16:50 | 63.37488 | -58.53463 | 35445 ft | 493 kts | 60° |
| 2026-04-25 16:50 | 63.39975 | -58.39175 | 35487 ft | 493 kts | 60° |
| 2026-04-25 16:51 | 63.42447 | -58.24872 | 35452 ft | 494 kts | 60° |
| 2026-04-25 16:51 | 63.44493 | -58.12958 | 35448 ft | 495 kts | 61° |
| 2026-04-25 16:52 | 63.47176 | -57.95934 | 35418 ft | 504 kts | 68° |
| 2026-04-25 16:52 | 63.48657 | -57.80528 | 35430 ft | 507 kts | 71° |
| 2026-04-25 16:53 | 63.50732 | -57.57369 | 35406 ft | 507 kts | 71° |
| 2026-04-25 16:54 | 63.52142 | -57.41884 | 35446 ft | 508 kts | 71° |
| 2026-04-25 16:54 | 63.53563 | -57.26308 | 35408 ft | 510 kts | 72° |
| 2026-04-25 16:55 | 63.54972 | -57.10681 | 35401 ft | 512 kts | 72° |
| 2026-04-25 16:55 | 63.56366 | -56.94982 | 35395 ft | 513 kts | 72° |
| 2026-04-25 16:56 | 63.57732 | -56.79369 | 35366 ft | 514 kts | 72° |
| 2026-04-25 16:56 | 63.59096 | -56.63575 | 35369 ft | 514 kts | 72° |
| 2026-04-25 16:57 | 63.60441 | -56.47778 | 35365 ft | 514 kts | 72° |
| 2026-04-25 16:57 | 63.61769 | -56.31979 | 35354 ft | 516 kts | 73° |
| 2026-04-25 16:58 | 63.63086 | -56.16086 | 35352 ft | 517 kts | 73° |
| 2026-04-25 16:58 | 63.64386 | -56.00157 | 35346 ft | 518 kts | 74° |
| 2026-04-25 16:59 | 63.65662 | -55.84299 | 35326 ft | 519 kts | 74° |
| 2026-04-25 16:59 | 63.66930 | -55.68306 | 35322 ft | 519 kts | 74° |
| 2026-04-25 17:00 | 63.68182 | -55.52264 | 35305 ft | 519 kts | 74° |
| 2026-04-25 17:00 | 63.69414 | -55.36241 | 35299 ft | 518 kts | 75° |
| 2026-04-25 17:01 | 63.70628 | -55.20226 | 35301 ft | 517 kts | 75° |
| 2026-04-25 17:01 | 63.71819 | -55.04256 | 35273 ft | 516 kts | 75° |
| 2026-04-25 17:02 | 63.72992 | -54.88271 | 35264 ft | 515 kts | 76° |
| 2026-04-25 17:02 | 63.74146 | -54.72308 | 35277 ft | 515 kts | 76° |
| 2026-04-25 17:03 | 63.75274 | -54.56433 | 35260 ft | 515 kts | 76° |
| 2026-04-25 17:03 | 63.76394 | -54.40435 | 35255 ft | 515 kts | 76° |
| 2026-04-25 17:04 | 63.77497 | -54.24416 | 35269 ft | 516 kts | 77° |
| 2026-04-25 17:04 | 63.78584 | -54.08322 | 35247 ft | 518 kts | 78° |
| 2026-04-25 17:05 | 63.79657 | -53.92168 | 35244 ft | 520 kts | 78° |
| 2026-04-25 17:05 | 63.81237 | -53.67854 | 35211 ft | 521 kts | 78° |
| 2026-04-25 17:06 | 63.82270 | -53.51585 | 35211 ft | 522 kts | 78° |
| 2026-04-25 17:06 | 63.83284 | -53.35306 | 35206 ft | 521 kts | 78° |
| 2026-04-25 17:07 | 63.84274 | -53.19147 | 35226 ft | 520 kts | 80° |
| 2026-04-25 17:07 | 63.85251 | -53.02859 | 35192 ft | 521 kts | 80° |
| 2026-04-25 17:08 | 63.86210 | -52.86554 | 35167 ft | 522 kts | 80° |
| 2026-04-25 17:08 | 63.87151 | -52.70242 | 35162 ft | 522 kts | 81° |
| 2026-04-25 17:09 | 63.88075 | -52.53891 | 35154 ft | 522 kts | 81° |
| 2026-04-25 17:09 | 63.88981 | -52.37526 | 35136 ft | 522 kts | 81° |
| 2026-04-25 17:10 | 63.89868 | -52.21165 | 35123 ft | 522 kts | 82° |
| 2026-04-25 17:10 | 63.90732 | -52.04885 | 35148 ft | 522 kts | 82° |
| 2026-04-25 17:11 | 63.91582 | -51.88482 | 35125 ft | 523 kts | 83° |
| 2026-04-25 17:11 | 63.92414 | -51.72075 | 35120 ft | 523 kts | 83° |
| 2026-04-25 17:12 | 63.93228 | -51.55645 | 35103 ft | 523 kts | 83° |
| 2026-04-25 17:12 | 63.94024 | -51.39206 | 35103 ft | 523 kts | 83° |
| 2026-04-25 17:13 | 63.94546 | -51.28211 | 35109 ft | 523 kts | 83° |
| 2026-04-25 17:13 | 63.95560 | -51.06275 | 35087 ft | 523 kts | 83° |
| 2026-04-25 17:14 | 63.96301 | -50.89792 | 35097 ft | 523 kts | 84° |
| 2026-04-25 17:14 | 63.97021 | -50.73309 | 35109 ft | 523 kts | 84° |
| 2026-04-25 17:15 | 63.97720 | -50.56920 | 35103 ft | 523 kts | 84° |
| 2026-04-25 17:15 | 63.98405 | -50.40394 | 35115 ft | 523 kts | 85° |
| 2026-04-25 17:16 | 63.99070 | -50.23901 | 35100 ft | 523 kts | 85° |
| 2026-04-25 17:16 | 63.99720 | -50.07362 | 35105 ft | 523 kts | 85° |
| 2026-04-25 17:17 | 64.00329 | -49.90971 | 35126 ft | 522 kts | 86° |
| 2026-04-25 17:17 | 64.00876 | -49.74425 | 35091 ft | 522 kts | 86° |
| 2026-04-25 17:18 | 64.01392 | -49.57905 | 35089 ft | 522 kts | 86° |
| 2026-04-25 17:18 | 64.01898 | -49.41366 | 35089 ft | 522 kts | 86° |
| 2026-04-25 17:19 | 64.02391 | -49.24816 | 35082 ft | 522 kts | 86° |
| 2026-04-25 17:19 | 64.02863 | -49.08406 | 35073 ft | 522 kts | 87° |
| 2026-04-25 17:20 | 64.03319 | -48.91856 | 35018 ft | 522 kts | 87° |
| 2026-04-25 17:20 | 64.03755 | -48.75350 | 35046 ft | 521 kts | 87° |
| 2026-04-25 17:21 | 64.04172 | -48.58826 | 35029 ft | 521 kts | 87° |
| 2026-04-25 17:21 | 64.04569 | -48.42333 | 35028 ft | 520 kts | 88° |
| 2026-04-25 17:22 | 64.04825 | -48.31310 | 35032 ft | 520 kts | 88° |
| 2026-04-25 17:22 | 64.05308 | -48.09379 | 35026 ft | 519 kts | 88° |
| 2026-04-25 17:23 | 64.05649 | -47.92903 | 35035 ft | 520 kts | 88° |
| 2026-04-25 17:23 | 64.05969 | -47.76522 | 35016 ft | 519 kts | 88° |
| 2026-04-25 17:24 | 64.06274 | -47.59961 | 35038 ft | 518 kts | 88° |
| 2026-04-25 17:24 | 64.06557 | -47.43634 | 35024 ft | 517 kts | 89° |
| 2026-04-25 17:25 | 64.06822 | -47.27204 | 35033 ft | 517 kts | 89° |
| 2026-04-25 17:25 | 64.07069 | -47.10796 | 35022 ft | 517 kts | 89° |
| 2026-04-25 17:26 | 64.07297 | -46.94375 | 35029 ft | 517 kts | 89° |
| 2026-04-25 17:26 | 64.07507 | -46.77969 | 35037 ft | 517 kts | 89° |
| 2026-04-25 17:27 | 64.07698 | -46.61547 | 35035 ft | 515 kts | 89° |
| 2026-04-25 17:27 | 64.07816 | -46.50611 | 35021 ft | 515 kts | 89° |
| 2026-04-25 17:28 | 64.08024 | -46.28862 | 35036 ft | 513 kts | 90° |
| 2026-04-25 17:28 | 64.08159 | -46.12557 | 35033 ft | 512 kts | 90° |
| 2026-04-25 17:29 | 64.08275 | -45.96382 | 35029 ft | 512 kts | 90° |
| 2026-04-25 17:29 | 64.08373 | -45.80067 | 35028 ft | 512 kts | 90° |
| 2026-04-25 17:30 | 64.08454 | -45.63780 | 35034 ft | 512 kts | 90° |
| 2026-04-25 17:30 | 64.08516 | -45.47481 | 35053 ft | 513 kts | 91° |
| 2026-04-25 17:31 | 64.08560 | -45.31142 | 35036 ft | 514 kts | 91° |
| 2026-04-25 17:31 | 64.08586 | -45.14757 | 35038 ft | 515 kts | 91° |
| 2026-04-25 17:32 | 64.08593 | -44.98364 | 35029 ft | 516 kts | 91° |
| 2026-04-25 17:32 | 64.08582 | -44.82072 | 35031 ft | 516 kts | 91° |
| 2026-04-25 17:33 | 64.08553 | -44.65667 | 35031 ft | 516 kts | 91° |
| 2026-04-25 17:33 | 64.08505 | -44.49271 | 35015 ft | 516 kts | 91° |
| 2026-04-25 17:34 | 64.08438 | -44.32915 | 34997 ft | 513 kts | 91° |
| 2026-04-25 17:34 | 64.08355 | -44.16651 | 34991 ft | 510 kts | 91° |
| 2026-04-25 17:35 | 64.08272 | -44.03195 | 34972 ft | 508 kts | 92° |
| 2026-04-25 17:35 | 64.08156 | -43.87074 | 34975 ft | 506 kts | 92° |
| 2026-04-25 17:36 | 64.08022 | -43.70989 | 34972 ft | 506 kts | 92° |
| 2026-04-25 17:36 | 64.07871 | -43.54909 | 34962 ft | 506 kts | 92° |
| 2026-04-25 17:37 | 64.07701 | -43.38772 | 34964 ft | 508 kts | 92° |
| 2026-04-25 17:37 | 64.07514 | -43.22742 | 34957 ft | 507 kts | 92° |
| 2026-04-25 17:38 | 64.07344 | -43.09246 | 34936 ft | 506 kts | 92° |
| 2026-04-25 17:38 | 64.07088 | -42.90583 | 34937 ft | 505 kts | 92° |
| 2026-04-25 17:39 | 64.06848 | -42.74549 | 34937 ft | 505 kts | 93° |
| 2026-04-25 17:39 | 64.06591 | -42.58508 | 34918 ft | 504 kts | 93° |
| 2026-04-25 17:40 | 64.06317 | -42.42507 | 34917 ft | 504 kts | 93° |
| 2026-04-25 17:40 | 64.06025 | -42.26511 | 34923 ft | 504 kts | 93° |
| 2026-04-25 17:41 | 64.05719 | -42.10678 | 34934 ft | 502 kts | 93° |
| 2026-04-25 17:41 | 64.05395 | -41.94804 | 34950 ft | 500 kts | 93° |
| 2026-04-25 17:42 | 64.05054 | -41.78962 | 34976 ft | 498 kts | 94° |
| 2026-04-25 17:42 | 64.04697 | -41.63184 | 34978 ft | 497 kts | 94° |
| 2026-04-25 17:43 | 64.04324 | -41.47432 | 34992 ft | 497 kts | 94° |
| 2026-04-25 17:43 | 64.03933 | -41.31684 | 34999 ft | 497 kts | 94° |
| 2026-04-25 17:44 | 64.03525 | -41.15924 | 34995 ft | 497 kts | 94° |
| 2026-04-25 17:44 | 64.03103 | -41.00261 | 34995 ft | 498 kts | 95° |
| 2026-04-25 17:45 | 64.02733 | -40.87028 | 35007 ft | 499 kts | 95° |
| 2026-04-25 17:45 | 64.02199 | -40.68640 | 35009 ft | 500 kts | 96° |
| 2026-04-25 17:46 | 64.01719 | -40.52764 | 35012 ft | 502 kts | 96° |
| 2026-04-25 17:46 | 64.01222 | -40.36889 | 35013 ft | 502 kts | 96° |
| 2026-04-25 17:47 | 64.00706 | -40.20993 | 35012 ft | 502 kts | 96° |
| 2026-04-25 17:47 | 64.00181 | -40.05233 | 35017 ft | 501 kts | 96° |
| 2026-04-25 17:48 | 63.98899 | -39.81679 | 35023 ft | 499 kts | 101° |
| 2026-04-25 17:49 | 63.97846 | -39.65972 | 35030 ft | 503 kts | 101° |
| 2026-04-25 17:49 | 63.96794 | -39.50270 | 35021 ft | 499 kts | 101° |
| 2026-04-25 17:50 | 63.95752 | -39.34698 | 35014 ft | 496 kts | 101° |
| 2026-04-25 17:50 | 63.94705 | -39.19235 | 35019 ft | 494 kts | 102° |
| 2026-04-25 17:51 | 63.93641 | -39.03792 | 35027 ft | 494 kts | 102° |
| 2026-04-25 17:51 | 63.92565 | -38.88440 | 35028 ft | 494 kts | 102° |
| 2026-04-25 17:52 | 63.91468 | -38.73003 | 35023 ft | 495 kts | 102° |
| 2026-04-25 17:52 | 63.90351 | -38.57568 | 35022 ft | 495 kts | 102° |
| 2026-04-25 17:53 | 63.89217 | -38.42120 | 35024 ft | 496 kts | 102° |
| 2026-04-25 17:53 | 63.88064 | -38.26660 | 35028 ft | 497 kts | 103° |
| 2026-04-25 17:54 | 63.86893 | -38.11176 | 35030 ft | 497 kts | 103° |
| 2026-04-25 17:54 | 63.85712 | -37.95812 | 35029 ft | 496 kts | 103° |
| 2026-04-25 17:55 | 63.84516 | -37.80452 | 35020 ft | 493 kts | 103° |
| 2026-04-25 17:55 | 63.83314 | -37.65222 | 35021 ft | 489 kts | 103° |
| 2026-04-25 17:56 | 63.82098 | -37.50052 | 35029 ft | 489 kts | 103° |
| 2026-04-25 17:56 | 63.80853 | -37.34776 | 35037 ft | 496 kts | 103° |
| 2026-04-25 17:57 | 63.79592 | -37.19480 | 35030 ft | 498 kts | 103° |
| 2026-04-25 17:57 | 63.78305 | -37.04063 | 35013 ft | 499 kts | 104° |
| 2026-04-25 17:58 | 63.77012 | -36.88773 | 35006 ft | 488 kts | 103° |
| 2026-04-25 17:58 | 63.75731 | -36.73819 | 35017 ft | 483 kts | 104° |
| 2026-04-25 17:59 | 63.74435 | -36.58924 | 35025 ft | 484 kts | 104° |
| 2026-04-25 17:59 | 63.73119 | -36.44004 | 35023 ft | 485 kts | 104° |
| 2026-04-25 18:00 | 63.71783 | -36.29022 | 35026 ft | 488 kts | 104° |
| 2026-04-25 18:00 | 63.70423 | -36.13974 | 35028 ft | 491 kts | 104° |
| 2026-04-25 18:01 | 63.69051 | -35.98963 | 35024 ft | 493 kts | 104° |
| 2026-04-25 18:01 | 63.67663 | -35.83937 | 35006 ft | 485 kts | 105° |
| 2026-04-25 18:02 | 63.66278 | -35.69137 | 35018 ft | 482 kts | 105° |
| 2026-04-25 18:02 | 63.64877 | -35.54374 | 35023 ft | 483 kts | 105° |
| 2026-04-25 18:03 | 63.63458 | -35.39592 | 35018 ft | 483 kts | 105° |
| 2026-04-25 18:03 | 63.62021 | -35.24782 | 35012 ft | 485 kts | 105° |
| 2026-04-25 18:04 | 63.60574 | -35.10039 | 35026 ft | 487 kts | 106° |
| 2026-04-25 18:04 | 63.59095 | -34.95151 | 35025 ft | 488 kts | 106° |
| 2026-04-25 18:05 | 63.57600 | -34.80256 | 35019 ft | 489 kts | 106° |
| 2026-04-25 18:05 | 63.56085 | -34.65342 | 35019 ft | 489 kts | 106° |
| 2026-04-25 18:06 | 63.54558 | -34.50468 | 35019 ft | 489 kts | 106° |
| 2026-04-25 18:06 | 63.53018 | -34.35642 | 35020 ft | 488 kts | 106° |
| 2026-04-25 18:07 | 63.51464 | -34.20838 | 35021 ft | 487 kts | 107° |
| 2026-04-25 18:07 | 63.49894 | -34.06055 | 35018 ft | 488 kts | 107° |
| 2026-04-25 18:08 | 63.48307 | -33.91276 | 35029 ft | 487 kts | 107° |
| 2026-04-25 18:08 | 63.46720 | -33.76635 | 35022 ft | 486 kts | 107° |
| 2026-04-25 18:09 | 63.45115 | -33.61977 | 35028 ft | 485 kts | 107° |
| 2026-04-25 18:09 | 63.43496 | -33.47361 | 35031 ft | 484 kts | 107° |
| 2026-04-25 18:10 | 63.42139 | -33.35221 | 35029 ft | 484 kts | 107° |
| 2026-04-25 18:10 | 63.40216 | -33.18200 | 35037 ft | 483 kts | 108° |
| 2026-04-25 18:11 | 63.38568 | -33.03769 | 35024 ft | 483 kts | 108° |
| 2026-04-25 18:11 | 63.36899 | -32.89294 | 35035 ft | 481 kts | 108° |
| 2026-04-25 18:12 | 63.35221 | -32.74878 | 35029 ft | 479 kts | 108° |
| 2026-04-25 18:12 | 63.33534 | -32.60534 | 35031 ft | 478 kts | 108° |
| 2026-04-25 18:13 | 63.31837 | -32.46247 | 35032 ft | 477 kts | 108° |
| 2026-04-25 18:13 | 63.30128 | -32.31990 | 35033 ft | 477 kts | 108° |
| 2026-04-25 18:14 | 63.27531 | -32.10590 | 35034 ft | 477 kts | 108° |
| 2026-04-25 18:14 | 63.25797 | -31.96465 | 35039 ft | 476 kts | 108° |
| 2026-04-25 18:15 | 63.24040 | -31.82275 | 35038 ft | 476 kts | 108° |
| 2026-04-25 18:15 | 63.22270 | -31.68117 | 35038 ft | 476 kts | 108° |
| 2026-04-25 18:16 | 63.20481 | -31.53940 | 35036 ft | 477 kts | 109° |
| 2026-04-25 18:17 | 63.17784 | -31.32805 | 35036 ft | 477 kts | 109° |
| 2026-04-25 18:17 | 63.15957 | -31.18651 | 35035 ft | 477 kts | 109° |
| 2026-04-25 18:18 | 63.14120 | -31.04542 | 35048 ft | 476 kts | 109° |
| 2026-04-25 18:18 | 63.12275 | -30.90493 | 35031 ft | 475 kts | 109° |
| 2026-04-25 18:19 | 63.10419 | -30.76482 | 35026 ft | 474 kts | 109° |
| 2026-04-25 18:19 | 63.08552 | -30.62517 | 35039 ft | 474 kts | 109° |
| 2026-04-25 18:20 | 63.06668 | -30.48546 | 35041 ft | 476 kts | 109° |
| 2026-04-25 18:20 | 63.04778 | -30.34644 | 35039 ft | 477 kts | 109° |
| 2026-04-25 18:21 | 63.02859 | -30.20630 | 35039 ft | 478 kts | 109° |
| 2026-04-25 18:21 | 63.01016 | -30.06538 | 35035 ft | 479 kts | 104° |
| 2026-04-25 18:22 | 63.00295 | -29.91919 | 35041 ft | 482 kts | 93° |
| 2026-04-25 18:22 | 63.00580 | -29.79649 | 35030 ft | 483 kts | 88° |
| 2026-04-25 18:23 | 63.01125 | -29.64895 | 35038 ft | 483 kts | 88° |
| 2026-04-25 18:23 | 63.01643 | -29.50143 | 35039 ft | 484 kts | 88° |
| 2026-04-25 18:24 | 63.02120 | -29.35346 | 35041 ft | 485 kts | 88° |
| 2026-04-25 18:24 | 63.02569 | -29.20498 | 35039 ft | 485 kts | 89° |
| 2026-04-25 18:25 | 63.02998 | -29.05748 | 35042 ft | 486 kts | 89° |
| 2026-04-25 18:25 | 63.03415 | -28.90865 | 35029 ft | 486 kts | 89° |
| 2026-04-25 18:26 | 63.03820 | -28.75945 | 35042 ft | 487 kts | 89° |
| 2026-04-25 18:26 | 63.04209 | -28.61012 | 35040 ft | 488 kts | 89° |
| 2026-04-25 18:27 | 63.04583 | -28.46066 | 35050 ft | 487 kts | 89° |
| 2026-04-25 18:27 | 63.04937 | -28.31268 | 35033 ft | 485 kts | 89° |
| 2026-04-25 18:28 | 63.05276 | -28.16457 | 35025 ft | 483 kts | 89° |
| 2026-04-25 18:28 | 63.05598 | -28.01692 | 35036 ft | 482 kts | 89° |
| 2026-04-25 18:29 | 63.06052 | -27.79530 | 35045 ft | 483 kts | 89° |
| 2026-04-25 18:30 | 63.06606 | -27.49866 | 35047 ft | 485 kts | 90° |
| 2026-04-25 18:30 | 63.06861 | -27.34984 | 35047 ft | 486 kts | 90° |
| 2026-04-25 18:31 | 63.07099 | -27.20169 | 35045 ft | 487 kts | 90° |
| 2026-04-25 18:31 | 63.07324 | -27.05232 | 35050 ft | 488 kts | 90° |
| 2026-04-25 18:32 | 63.07533 | -26.90260 | 35049 ft | 488 kts | 90° |
| 2026-04-25 18:32 | 63.07726 | -26.75280 | 35049 ft | 488 kts | 90° |
| 2026-04-25 18:33 | 63.07903 | -26.60363 | 35048 ft | 486 kts | 90° |
| 2026-04-25 18:33 | 63.08064 | -26.45460 | 35035 ft | 484 kts | 90° |
| 2026-04-25 18:34 | 63.08209 | -26.30606 | 35050 ft | 483 kts | 90° |
| 2026-04-25 18:34 | 63.08337 | -26.15838 | 35052 ft | 483 kts | 90° |
| 2026-04-25 18:35 | 63.08451 | -26.01004 | 35055 ft | 483 kts | 90° |
| 2026-04-25 18:35 | 63.08549 | -25.86155 | 35055 ft | 484 kts | 91° |
| 2026-04-25 18:36 | 63.08631 | -25.71393 | 35060 ft | 484 kts | 91° |
| 2026-04-25 18:36 | 63.08698 | -25.56531 | 35056 ft | 484 kts | 91° |
| 2026-04-25 18:37 | 63.08750 | -25.41643 | 35065 ft | 486 kts | 91° |
| 2026-04-25 18:37 | 63.08786 | -25.26723 | 35065 ft | 487 kts | 91° |
| 2026-04-25 18:38 | 63.08807 | -25.11744 | 35067 ft | 487 kts | 91° |
| 2026-04-25 18:38 | 63.08812 | -24.96751 | 35067 ft | 487 kts | 92° |
| 2026-04-25 18:39 | 63.08802 | -24.81930 | 35047 ft | 485 kts | 91° |
| 2026-04-25 18:39 | 63.08775 | -24.67065 | 35063 ft | 483 kts | 92° |
| 2026-04-25 18:40 | 63.08733 | -24.52239 | 35063 ft | 483 kts | 92° |
| 2026-04-25 18:40 | 63.08676 | -24.37412 | 35073 ft | 483 kts | 92° |
| 2026-04-25 18:41 | 63.08602 | -24.22578 | 35072 ft | 483 kts | 92° |
| 2026-04-25 18:41 | 63.08514 | -24.07734 | 35071 ft | 484 kts | 92° |
| 2026-04-25 18:42 | 63.08428 | -23.95389 | 35075 ft | 484 kts | 93° |
| 2026-04-25 18:42 | 63.08291 | -23.78079 | 35088 ft | 485 kts | 93° |
| 2026-04-25 18:43 | 63.08156 | -23.63194 | 35077 ft | 485 kts | 92° |
| 2026-04-25 18:43 | 63.08004 | -23.48301 | 35091 ft | 485 kts | 92° |
| 2026-04-25 18:44 | 63.07838 | -23.33420 | 35074 ft | 485 kts | 92° |
| 2026-04-25 18:44 | 63.07656 | -23.18556 | 35074 ft | 485 kts | 94° |
| 2026-04-25 18:45 | 63.07459 | -23.03783 | 35089 ft | 484 kts | 93° |
| 2026-04-25 18:45 | 63.07247 | -22.88954 | 35089 ft | 483 kts | 94° |
| 2026-04-25 18:46 | 63.07020 | -22.74144 | 35085 ft | 483 kts | 93° |
| 2026-04-25 18:46 | 63.06777 | -22.59334 | 35093 ft | 483 kts | 93° |
| 2026-04-25 18:47 | 63.06517 | -22.44539 | 35092 ft | 483 kts | 94° |
| 2026-04-25 18:47 | 63.06243 | -22.29745 | 35079 ft | 483 kts | 94° |
| 2026-04-25 18:48 | 63.05954 | -22.14983 | 35105 ft | 485 kts | 94° |
| 2026-04-25 18:48 | 63.05647 | -22.00085 | 35101 ft | 488 kts | 94° |
| 2026-04-25 18:49 | 63.05322 | -21.85106 | 35119 ft | 489 kts | 95° |
| 2026-04-25 18:49 | 63.04982 | -21.70134 | 35112 ft | 489 kts | 95° |
| 2026-04-25 18:50 | 63.04626 | -21.55155 | 35102 ft | 488 kts | 95° |
| 2026-04-25 18:50 | 63.04255 | -21.40190 | 35110 ft | 489 kts | 95° |
| 2026-04-25 18:51 | 63.03934 | -21.27713 | 35116 ft | 491 kts | 94° |
| 2026-04-25 18:51 | 63.03458 | -21.10108 | 35132 ft | 494 kts | 95° |
| 2026-04-25 18:52 | 63.03034 | -20.94999 | 35124 ft | 494 kts | 95° |
| 2026-04-25 18:52 | 63.02599 | -20.80012 | 35125 ft | 493 kts | 95° |
| 2026-04-25 18:53 | 63.02144 | -20.64942 | 35128 ft | 492 kts | 96° |
| 2026-04-25 18:53 | 63.01672 | -20.49858 | 35134 ft | 495 kts | 95° |
| 2026-04-25 18:54 | 63.00930 | -20.27094 | 35137 ft | 497 kts | 95° |
| 2026-04-25 18:55 | 63.00421 | -20.12004 | 35149 ft | 496 kts | 95° |
| 2026-04-25 18:55 | 62.99992 | -19.96864 | 35142 ft | 496 kts | 90° |
| 2026-04-25 18:56 | 63.00233 | -19.81706 | 35140 ft | 495 kts | 88° |
| 2026-04-25 18:56 | 63.00522 | -19.66527 | 35146 ft | 497 kts | 88° |
| 2026-04-25 18:57 | 63.00771 | -19.51294 | 35153 ft | 500 kts | 89° |
| 2026-04-25 18:57 | 63.00983 | -19.36021 | 35159 ft | 505 kts | 90° |
| 2026-04-25 18:58 | 63.01175 | -19.20486 | 35176 ft | 510 kts | 90° |
| 2026-04-25 18:58 | 63.01437 | -18.97064 | 35157 ft | 507 kts | 89° |
| 2026-04-25 18:59 | 63.01725 | -18.66246 | 35180 ft | 501 kts | 90° |
| 2026-04-25 19:00 | 63.01895 | -18.43180 | 35184 ft | 503 kts | 90° |
| 2026-04-25 19:01 | 63.02028 | -18.19987 | 35183 ft | 507 kts | 90° |
| 2026-04-25 19:01 | 63.02096 | -18.04438 | 35184 ft | 509 kts | 90° |
| 2026-04-25 19:02 | 63.02168 | -17.81028 | 35189 ft | 511 kts | 90° |
| 2026-04-25 19:03 | 63.02196 | -17.62840 | 35192 ft | 511 kts | 90° |
| 2026-04-25 19:03 | 63.02200 | -17.42002 | 35180 ft | 511 kts | 91° |
| 2026-04-25 19:04 | 63.02167 | -17.18539 | 35196 ft | 510 kts | 91° |
| 2026-04-25 19:05 | 63.02064 | -16.87289 | 35200 ft | 509 kts | 91° |
| 2026-04-25 19:06 | 63.01986 | -16.71664 | 35200 ft | 509 kts | 92° |
| 2026-04-25 19:06 | 63.01838 | -16.48405 | 35207 ft | 508 kts | 92° |
| 2026-04-25 19:07 | 63.01652 | -16.25058 | 35207 ft | 508 kts | 92° |
| 2026-04-25 19:08 | 63.01427 | -16.01718 | 35212 ft | 508 kts | 93° |
| 2026-04-25 19:09 | 63.01133 | -15.75849 | 35218 ft | 508 kts | 93° |
| 2026-04-25 19:10 | 63.00754 | -15.47343 | 35215 ft | 508 kts | 93° |
| 2026-04-25 19:10 | 63.00524 | -15.31784 | 35215 ft | 508 kts | 94° |
| 2026-04-25 19:11 | 63.00279 | -15.16233 | 35215 ft | 508 kts | 94° |
| 2026-04-25 19:11 | 62.99581 | -15.00806 | 35212 ft | 504 kts | 104° |
| 2026-04-25 19:12 | 62.98049 | -14.88485 | 35217 ft | 500 kts | 113° |
| 2026-04-25 19:12 | 62.95058 | -14.71953 | 35228 ft | 501 kts | 115° |
| 2026-04-25 19:13 | 62.92895 | -14.60125 | 35225 ft | 501 kts | 114° |
| 2026-04-25 19:13 | 62.90290 | -14.45794 | 35229 ft | 502 kts | 114° |
| 2026-04-25 19:14 | 62.87718 | -14.31636 | 35222 ft | 502 kts | 114° |
| 2026-04-25 19:14 | 62.85124 | -14.17430 | 35230 ft | 502 kts | 115° |
| 2026-04-25 19:15 | 62.82516 | -14.03270 | 35234 ft | 501 kts | 115° |
| 2026-04-25 19:15 | 62.79899 | -13.89166 | 35233 ft | 500 kts | 115° |
| 2026-04-25 19:16 | 62.77268 | -13.75096 | 35236 ft | 500 kts | 115° |
| 2026-04-25 19:16 | 62.74658 | -13.61222 | 35229 ft | 490 kts | 115° |
| 2026-04-25 19:17 | 62.72057 | -13.47498 | 35245 ft | 489 kts | 116° |
| 2026-04-25 19:17 | 62.69462 | -13.33911 | 35249 ft | 489 kts | 116° |
| 2026-04-25 19:18 | 62.66835 | -13.20245 | 35246 ft | 489 kts | 116° |
| 2026-04-25 19:18 | 62.64197 | -13.06612 | 35249 ft | 489 kts | 116° |
| 2026-04-25 19:19 | 62.61544 | -12.92991 | 35252 ft | 490 kts | 116° |
| 2026-04-25 19:19 | 62.58874 | -12.79376 | 35250 ft | 490 kts | 116° |
| 2026-04-25 19:20 | 62.56189 | -12.65778 | 35261 ft | 490 kts | 117° |
| 2026-04-25 19:20 | 62.53493 | -12.52218 | 35250 ft | 489 kts | 117° |
| 2026-04-25 19:21 | 62.50811 | -12.38809 | 35261 ft | 487 kts | 117° |
| 2026-04-25 19:21 | 62.46753 | -12.18692 | 35258 ft | 486 kts | 117° |
| 2026-04-25 19:22 | 62.44030 | -12.05311 | 35264 ft | 486 kts | 117° |
| 2026-04-25 19:23 | 62.39926 | -11.85296 | 35264 ft | 486 kts | 117° |
| 2026-04-25 19:23 | 62.35795 | -11.65349 | 35266 ft | 487 kts | 118° |
| 2026-04-25 19:24 | 62.33036 | -11.52132 | 35274 ft | 487 kts | 118° |
| 2026-04-25 19:25 | 62.27450 | -11.25619 | 35272 ft | 486 kts | 118° |
| 2026-04-25 19:25 | 62.24644 | -11.12430 | 35270 ft | 485 kts | 118° |
| 2026-04-25 19:26 | 62.21845 | -10.99360 | 35277 ft | 484 kts | 118° |
| 2026-04-25 19:26 | 62.19021 | -10.86253 | 35266 ft | 485 kts | 118° |
| 2026-04-25 19:27 | 62.16640 | -10.75266 | 35288 ft | 486 kts | 118° |
| 2026-04-25 19:27 | 62.13307 | -10.59978 | 35288 ft | 488 kts | 118° |
| 2026-04-25 19:28 | 62.10422 | -10.46834 | 35293 ft | 488 kts | 118° |
| 2026-04-25 19:28 | 62.07528 | -10.33723 | 35283 ft | 487 kts | 118° |
| 2026-04-25 19:29 | 62.04636 | -10.20697 | 35289 ft | 485 kts | 119° |
| 2026-04-25 19:29 | 62.01756 | -10.07720 | 35276 ft | 485 kts | 116° |
| 2026-04-25 19:30 | 61.99666 | -9.93982 | 35304 ft | 492 kts | 106° |
| 2026-04-25 19:30 | 61.98624 | -9.79597 | 35316 ft | 496 kts | 100° |
| 2026-04-25 19:31 | 61.97756 | -9.64993 | 35304 ft | 498 kts | 100° |
| 2026-04-25 19:31 | 61.96853 | -9.50377 | 35306 ft | 498 kts | 101° |
| 2026-04-25 19:32 | 61.95909 | -9.35787 | 35294 ft | 498 kts | 101° |
| 2026-04-25 19:32 | 61.95105 | -9.23673 | 35300 ft | 498 kts | 101° |
| 2026-04-25 19:33 | 61.93952 | -9.06619 | 35313 ft | 499 kts | 101° |
| 2026-04-25 19:33 | 61.92954 | -8.92099 | 35314 ft | 500 kts | 101° |
| 2026-04-25 19:34 | 61.91936 | -8.77487 | 35317 ft | 500 kts | 101° |
| 2026-04-25 19:34 | 61.90901 | -8.62872 | 35314 ft | 500 kts | 101° |
| 2026-04-25 19:35 | 61.89852 | -8.48284 | 35313 ft | 500 kts | 101° |
| 2026-04-25 19:35 | 61.88786 | -8.33690 | 35318 ft | 501 kts | 101° |
| 2026-04-25 19:36 | 61.87703 | -8.19086 | 35318 ft | 502 kts | 102° |
| 2026-04-25 19:36 | 61.86603 | -8.04469 | 35319 ft | 502 kts | 102° |
| 2026-04-25 19:37 | 61.85495 | -7.89953 | 35316 ft | 502 kts | 102° |
| 2026-04-25 19:37 | 61.84363 | -7.75343 | 35315 ft | 502 kts | 102° |
| 2026-04-25 19:38 | 61.83216 | -7.60747 | 35314 ft | 502 kts | 102° |
| 2026-04-25 19:38 | 61.82053 | -7.46158 | 35316 ft | 502 kts | 102° |
| 2026-04-25 19:39 | 61.80875 | -7.31592 | 35312 ft | 502 kts | 102° |
| 2026-04-25 19:39 | 61.79691 | -7.17146 | 35312 ft | 501 kts | 103° |
| 2026-04-25 19:40 | 61.78483 | -7.02611 | 35318 ft | 503 kts | 102° |
| 2026-04-25 19:40 | 61.77255 | -6.88029 | 35323 ft | 504 kts | 102° |
| 2026-04-25 19:41 | 61.76010 | -6.73431 | 35324 ft | 506 kts | 103° |
| 2026-04-25 19:41 | 61.75167 | -6.63661 | 35321 ft | 506 kts | 103° |
| 2026-04-25 19:42 | 61.73479 | -6.44333 | 35323 ft | 504 kts | 103° |
| 2026-04-25 19:42 | 61.72191 | -6.29813 | 35320 ft | 503 kts | 103° |
| 2026-04-25 19:43 | 61.70888 | -6.15317 | 35336 ft | 504 kts | 103° |
| 2026-04-25 19:43 | 61.69566 | -6.00794 | 35336 ft | 505 kts | 103° |
| 2026-04-25 19:44 | 61.68228 | -5.86270 | 35336 ft | 505 kts | 103° |
| 2026-04-25 19:44 | 61.66871 | -5.71718 | 35335 ft | 506 kts | 103° |
| 2026-04-25 19:45 | 61.65506 | -5.57264 | 35328 ft | 508 kts | 103° |
| 2026-04-25 19:45 | 61.64109 | -5.42646 | 35338 ft | 509 kts | 103° |
| 2026-04-25 19:46 | 61.62693 | -5.27997 | 35339 ft | 511 kts | 103° |
| 2026-04-25 19:46 | 61.61258 | -5.13336 | 35338 ft | 512 kts | 104° |
| 2026-04-25 19:47 | 61.59818 | -4.98788 | 35337 ft | 512 kts | 104° |
| 2026-04-25 19:47 | 61.58350 | -4.84143 | 35330 ft | 513 kts | 103° |
| 2026-04-25 19:48 | 61.56863 | -4.69468 | 35342 ft | 514 kts | 104° |
| 2026-04-25 19:48 | 61.55356 | -4.54765 | 35341 ft | 515 kts | 104° |
| 2026-04-25 19:49 | 61.54349 | -4.45036 | 35342 ft | 515 kts | 104° |
| 2026-04-25 19:49 | 61.52302 | -4.25473 | 35340 ft | 515 kts | 104° |
| 2026-04-25 19:50 | 61.49960 | -4.03456 | 35338 ft | 517 kts | 104° |
| 2026-04-25 19:51 | 61.48376 | -3.88755 | 35336 ft | 518 kts | 104° |
| 2026-04-25 19:51 | 61.46771 | -3.74035 | 35339 ft | 519 kts | 104° |
| 2026-04-25 19:52 | 61.45152 | -3.59338 | 35339 ft | 519 kts | 104° |
| 2026-04-25 19:52 | 61.43523 | -3.44717 | 35333 ft | 520 kts | 104° |
| 2026-04-25 19:53 | 61.41864 | -3.29978 | 35342 ft | 521 kts | 104° |
| 2026-04-25 19:53 | 61.40186 | -3.15235 | 35339 ft | 522 kts | 104° |
| 2026-04-25 19:54 | 61.38487 | -3.00459 | 35335 ft | 523 kts | 104° |
| 2026-04-25 19:54 | 61.36772 | -2.85693 | 35338 ft | 523 kts | 104° |
| 2026-04-25 19:55 | 61.35050 | -2.71031 | 35339 ft | 524 kts | 104° |
| 2026-04-25 19:55 | 61.33296 | -2.56244 | 35339 ft | 526 kts | 104° |
| 2026-04-25 19:56 | 61.31522 | -2.41436 | 35338 ft | 527 kts | 104° |
| 2026-04-25 19:56 | 61.29736 | -2.26678 | 35329 ft | 525 kts | 104° |
| 2026-04-25 19:57 | 61.27940 | -2.11994 | 35609 ft | 519 kts | 104° |
| 2026-04-25 19:57 | 61.27045 | -2.04736 | 35858 ft | 517 kts | 104° |
| 2026-04-25 19:57 | 61.26160 | -1.97591 | 36089 ft | 516 kts | 104° |
| 2026-04-25 19:57 | 61.25264 | -1.90384 | 36261 ft | 516 kts | 104° |
| 2026-04-25 19:58 | 61.24359 | -1.83140 | 36301 ft | 519 kts | 104° |
| 2026-04-25 19:58 | 61.22525 | -1.68569 | 36342 ft | 524 kts | 104° |
| 2026-04-25 19:59 | 61.20661 | -1.53903 | 36339 ft | 527 kts | 104° |
| 2026-04-25 19:59 | 61.18772 | -1.39189 | 36337 ft | 529 kts | 105° |
| 2026-04-25 20:00 | 61.16860 | -1.24439 | 36334 ft | 530 kts | 104° |
| 2026-04-25 20:00 | 61.15257 | -1.12172 | 36329 ft | 531 kts | 104° |
| 2026-04-25 20:01 | 61.12333 | -0.90059 | 36322 ft | 530 kts | 104° |
| 2026-04-25 20:01 | 61.10046 | -0.72975 | 36323 ft | 529 kts | 105° |
| 2026-04-25 20:02 | 61.08401 | -0.60801 | 36321 ft | 528 kts | 105° |
| 2026-04-25 20:02 | 61.06415 | -0.46219 | 36311 ft | 527 kts | 105° |
| 2026-04-25 20:03 | 61.04414 | -0.31659 | 36321 ft | 526 kts | 105° |
| 2026-04-25 20:03 | 61.02403 | -0.17144 | 36314 ft | 524 kts | 105° |
| 2026-04-25 20:04 | 60.99951 | -0.03031 | 36318 ft | 523 kts | 117° |
| 2026-04-25 20:04 | 60.96020 | 0.09458 | 36320 ft | 524 kts | 131° |
| 2026-04-25 20:05 | 60.91113 | 0.20568 | 36323 ft | 525 kts | 134° |
| 2026-04-25 20:05 | 60.86138 | 0.31627 | 36317 ft | 527 kts | 133° |
| 2026-04-25 20:06 | 60.81171 | 0.42758 | 36315 ft | 529 kts | 133° |
| 2026-04-25 20:06 | 60.76209 | 0.53923 | 36314 ft | 530 kts | 133° |
| 2026-04-25 20:07 | 60.71279 | 0.64980 | 36299 ft | 529 kts | 133° |
| 2026-04-25 20:07 | 60.66314 | 0.76055 | 36311 ft | 529 kts | 133° |
| 2026-04-25 20:08 | 60.61329 | 0.87122 | 36310 ft | 530 kts | 133° |
| 2026-04-25 20:08 | 60.56332 | 0.98155 | 36310 ft | 530 kts | 133° |
| 2026-04-25 20:09 | 60.51323 | 1.09156 | 36304 ft | 531 kts | 133° |
| 2026-04-25 20:09 | 60.46296 | 1.20140 | 36302 ft | 531 kts | 133° |
| 2026-04-25 20:10 | 60.41263 | 1.31082 | 36294 ft | 529 kts | 133° |
| 2026-04-25 20:10 | 60.36269 | 1.41893 | 36300 ft | 530 kts | 133° |
| 2026-04-25 20:11 | 60.31187 | 1.52834 | 36301 ft | 531 kts | 133° |
| 2026-04-25 20:11 | 60.26156 | 1.63615 | 36293 ft | 532 kts | 133° |
| 2026-04-25 20:12 | 60.21068 | 1.74466 | 36297 ft | 533 kts | 133° |
| 2026-04-25 20:12 | 60.16825 | 1.83475 | 36292 ft | 533 kts | 133° |
| 2026-04-25 20:13 | 60.10849 | 1.96104 | 36282 ft | 532 kts | 134° |
| 2026-04-25 20:13 | 60.05739 | 2.06842 | 36294 ft | 533 kts | 133° |
| 2026-04-25 20:14 | 60.00613 | 2.17568 | 36274 ft | 534 kts | 133° |
| 2026-04-25 20:14 | 59.95457 | 2.28303 | 36287 ft | 535 kts | 134° |
| 2026-04-25 20:15 | 59.90323 | 2.38941 | 36283 ft | 536 kts | 134° |
| 2026-04-25 20:15 | 59.85138 | 2.49634 | 36257 ft | 536 kts | 134° |
| 2026-04-25 20:16 | 59.79954 | 2.60272 | 36266 ft | 535 kts | 134° |
| 2026-04-25 20:16 | 59.74763 | 2.70878 | 36258 ft | 535 kts | 134° |
| 2026-04-25 20:17 | 59.69591 | 2.81391 | 36256 ft | 536 kts | 134° |
| 2026-04-25 20:17 | 59.64371 | 2.91951 | 36276 ft | 537 kts | 134° |
| 2026-04-25 20:18 | 59.59128 | 3.02510 | 36279 ft | 538 kts | 134° |
| 2026-04-25 20:18 | 59.53875 | 3.13038 | 36263 ft | 538 kts | 134° |
| 2026-04-25 20:19 | 59.48618 | 3.23524 | 36266 ft | 537 kts | 134° |
| 2026-04-25 20:19 | 59.43363 | 3.33959 | 36268 ft | 538 kts | 134° |
| 2026-04-25 20:20 | 59.38082 | 3.44394 | 36259 ft | 539 kts | 134° |
| 2026-04-25 20:20 | 59.32819 | 3.54746 | 36264 ft | 539 kts | 134° |
| 2026-04-25 20:21 | 59.27509 | 3.65143 | 36256 ft | 540 kts | 134° |
| 2026-04-25 20:21 | 59.22191 | 3.75505 | 36258 ft | 539 kts | 134° |
| 2026-04-25 20:22 | 59.17768 | 3.84087 | 36257 ft | 538 kts | 134° |
| 2026-04-25 20:22 | 59.11543 | 3.96110 | 36259 ft | 540 kts | 134° |
| 2026-04-25 20:23 | 59.06181 | 4.06415 | 36258 ft | 542 kts | 134° |
| 2026-04-25 20:23 | 59.00835 | 4.16640 | 36245 ft | 543 kts | 134° |
| 2026-04-25 20:24 | 58.95434 | 4.26924 | 36218 ft | 544 kts | 134° |
| 2026-04-25 20:24 | 58.90028 | 4.37167 | 36238 ft | 543 kts | 134° |
| 2026-04-25 20:25 | 58.84623 | 4.47362 | 36243 ft | 543 kts | 134° |
| 2026-04-25 20:25 | 58.79204 | 4.57539 | 36227 ft | 544 kts | 134° |
| 2026-04-25 20:26 | 58.73795 | 4.67650 | 36230 ft | 545 kts | 134° |
| 2026-04-25 20:26 | 58.68343 | 4.77793 | 36216 ft | 545 kts | 134° |
| 2026-04-25 20:27 | 58.62870 | 4.87929 | 36219 ft | 546 kts | 135° |
| 2026-04-25 20:27 | 58.57392 | 4.98027 | 36218 ft | 546 kts | 135° |
| 2026-04-25 20:28 | 58.51900 | 5.08106 | 36208 ft | 548 kts | 134° |
| 2026-04-25 20:28 | 58.46412 | 5.18133 | 36211 ft | 550 kts | 134° |
| 2026-04-25 20:29 | 58.40865 | 5.28222 | 36205 ft | 551 kts | 135° |
| 2026-04-25 20:29 | 58.35289 | 5.38314 | 36178 ft | 552 kts | 135° |
| 2026-04-25 20:30 | 58.29720 | 5.48348 | 36184 ft | 551 kts | 135° |
| 2026-04-25 20:30 | 58.24140 | 5.58356 | 36189 ft | 551 kts | 135° |
| 2026-04-25 20:31 | 58.18562 | 5.68317 | 36180 ft | 550 kts | 135° |
| 2026-04-25 20:31 | 58.12984 | 5.78232 | 36179 ft | 549 kts | 135° |
| 2026-04-25 20:32 | 58.07408 | 5.88100 | 36184 ft | 549 kts | 135° |
| 2026-04-25 20:32 | 58.01863 | 5.97868 | 36178 ft | 548 kts | 135° |
| 2026-04-25 20:33 | 57.96283 | 6.07653 | 36187 ft | 547 kts | 135° |
| 2026-04-25 20:33 | 57.91641 | 6.15761 | 36185 ft | 549 kts | 135° |
| 2026-04-25 20:34 | 57.85069 | 6.27191 | 36188 ft | 552 kts | 135° |
| 2026-04-25 20:34 | 57.79406 | 6.36992 | 36175 ft | 554 kts | 135° |
| 2026-04-25 20:35 | 57.73769 | 6.46704 | 36163 ft | 554 kts | 135° |
| 2026-04-25 20:35 | 57.68095 | 6.56433 | 36157 ft | 553 kts | 135° |
| 2026-04-25 20:36 | 57.62426 | 6.66113 | 36203 ft | 552 kts | 135° |
| 2026-04-25 20:36 | 57.56737 | 6.75786 | 36163 ft | 554 kts | 135° |
| 2026-04-25 20:37 | 57.51024 | 6.85458 | 36167 ft | 555 kts | 135° |
| 2026-04-25 20:37 | 57.45300 | 6.95102 | 36133 ft | 556 kts | 136° |
| 2026-04-25 20:38 | 57.39600 | 7.04665 | 36143 ft | 554 kts | 136° |
| 2026-04-25 20:38 | 57.33874 | 7.14229 | 36147 ft | 554 kts | 136° |
| 2026-04-25 20:39 | 57.28131 | 7.23779 | 36151 ft | 555 kts | 135° |
| 2026-04-25 20:39 | 57.24319 | 7.30099 | 36151 ft | 556 kts | 136° |
| 2026-04-25 20:40 | 57.16593 | 7.42847 | 36139 ft | 558 kts | 136° |
| 2026-04-25 20:40 | 57.10843 | 7.52286 | 36132 ft | 557 kts | 136° |
| 2026-04-25 20:41 | 57.05062 | 7.61739 | 36126 ft | 556 kts | 136° |
| 2026-04-25 20:41 | 56.99265 | 7.71150 | 36164 ft | 556 kts | 136° |
| 2026-04-25 20:42 | 56.93440 | 7.80560 | 36133 ft | 558 kts | 136° |
| 2026-04-25 20:42 | 56.87589 | 7.89975 | 36127 ft | 560 kts | 136° |
| 2026-04-25 20:43 | 56.81737 | 7.99356 | 36113 ft | 560 kts | 136° |
| 2026-04-25 20:43 | 56.75878 | 8.08708 | 36125 ft | 559 kts | 136° |
| 2026-04-25 20:44 | 56.70065 | 8.17946 | 36164 ft | 558 kts | 136° |
| 2026-04-25 20:44 | 56.64183 | 8.27256 | 36126 ft | 561 kts | 136° |
| 2026-04-25 20:45 | 56.58284 | 8.36551 | 36126 ft | 562 kts | 136° |
| 2026-04-25 20:45 | 56.52347 | 8.45817 | 36110 ft | 563 kts | 139° |
| 2026-04-25 20:46 | 56.45749 | 8.53523 | 36117 ft | 565 kts | 152° |
| 2026-04-25 20:46 | 56.38548 | 8.58950 | 36111 ft | 564 kts | 162° |
| 2026-04-25 20:47 | 56.31080 | 8.63351 | 36162 ft | 564 kts | 163° |
| 2026-04-25 20:47 | 56.23587 | 8.67754 | 36126 ft | 566 kts | 162° |
| 2026-04-25 20:48 | 56.16084 | 8.72248 | 36121 ft | 567 kts | 162° |
| 2026-04-25 20:48 | 56.08605 | 8.76759 | 36114 ft | 568 kts | 162° |
| 2026-04-25 20:49 | 56.01105 | 8.81264 | 36107 ft | 568 kts | 162° |
| 2026-04-25 20:49 | 55.93661 | 8.85709 | 36102 ft | 566 kts | 162° |
| 2026-04-25 20:50 | 55.86198 | 8.90141 | 36103 ft | 564 kts | 162° |
| 2026-04-25 20:50 | 55.78756 | 8.94544 | 36099 ft | 562 kts | 162° |
| 2026-04-25 20:51 | 55.72587 | 8.98181 | 36102 ft | 561 kts | 162° |
| 2026-04-25 20:51 | 55.65155 | 9.02546 | 36103 ft | 567 kts | 162° |
| 2026-04-25 20:52 | 55.58900 | 9.06205 | 36110 ft | 572 kts | 162° |
| 2026-04-25 20:52 | 55.50045 | 9.11366 | 36106 ft | 573 kts | 162° |
| 2026-04-25 20:53 | 55.42483 | 9.15843 | 36086 ft | 572 kts | 161° |
| 2026-04-25 20:53 | 55.35055 | 9.20592 | 36090 ft | 564 kts | 160° |
| 2026-04-25 20:54 | 55.27691 | 9.25364 | 36108 ft | 564 kts | 160° |
| 2026-04-25 20:54 | 55.20359 | 9.30040 | 36106 ft | 564 kts | 160° |
| 2026-04-25 20:55 | 55.12963 | 9.34693 | 36093 ft | 563 kts | 161° |
| 2026-04-25 20:55 | 55.05552 | 9.39328 | 36115 ft | 568 kts | 161° |
| 2026-04-25 20:56 | 54.98071 | 9.43991 | 36111 ft | 572 kts | 161° |
| 2026-04-25 20:56 | 54.90609 | 9.48630 | 36099 ft | 574 kts | 161° |
| 2026-04-25 20:57 | 54.83142 | 9.53256 | 36082 ft | 564 kts | 161° |
| 2026-04-25 20:57 | 54.75766 | 9.57807 | 36102 ft | 562 kts | 161° |
| 2026-04-25 20:58 | 54.68388 | 9.62339 | 36103 ft | 563 kts | 161° |
| 2026-04-25 20:58 | 54.60996 | 9.66863 | 36070 ft | 563 kts | 161° |
| 2026-04-25 20:59 | 54.53618 | 9.71362 | 36135 ft | 562 kts | 161° |
| 2026-04-25 20:59 | 54.46217 | 9.75856 | 36110 ft | 565 kts | 161° |
| 2026-04-25 21:00 | 54.40043 | 9.79593 | 36108 ft | 566 kts | 161° |
| 2026-04-25 21:01 | 54.27686 | 9.87036 | 36101 ft | 564 kts | 161° |
| 2026-04-25 21:01 | 54.20280 | 9.91474 | 36095 ft | 562 kts | 161° |
| 2026-04-25 21:02 | 54.12887 | 9.95888 | 36100 ft | 561 kts | 161° |
| 2026-04-25 21:02 | 54.05585 | 10.00231 | 36100 ft | 559 kts | 161° |
| 2026-04-25 21:03 | 53.98262 | 10.04571 | 36107 ft | 557 kts | 162° |
| 2026-04-25 21:03 | 53.90952 | 10.08886 | 36115 ft | 555 kts | 162° |
| 2026-04-25 21:04 | 53.83663 | 10.13172 | 36113 ft | 554 kts | 162° |
| 2026-04-25 21:04 | 53.76390 | 10.17434 | 36123 ft | 551 kts | 162° |
| 2026-04-25 21:05 | 53.69144 | 10.21666 | 36118 ft | 550 kts | 162° |
| 2026-04-25 21:05 | 53.61917 | 10.25869 | 36122 ft | 548 kts | 162° |
| 2026-04-25 21:06 | 53.54711 | 10.30046 | 36087 ft | 548 kts | 162° |
| 2026-04-25 21:06 | 53.47551 | 10.34182 | 36107 ft | 545 kts | 162° |
| 2026-04-25 21:07 | 53.40375 | 10.38310 | 36115 ft | 546 kts | 162° |
| 2026-04-25 21:07 | 53.33177 | 10.42437 | 36117 ft | 548 kts | 162° |
| 2026-04-25 21:08 | 53.25949 | 10.46567 | 36099 ft | 548 kts | 162° |
| 2026-04-25 21:08 | 53.18729 | 10.50678 | 36102 ft | 548 kts | 163° |
| 2026-04-25 21:09 | 53.07961 | 10.56782 | 36105 ft | 546 kts | 163° |
| 2026-04-25 21:09 | 53.00771 | 10.60839 | 36101 ft | 545 kts | 163° |
| 2026-04-25 21:10 | 52.93583 | 10.64881 | 36102 ft | 545 kts | 163° |
| 2026-04-25 21:10 | 52.86391 | 10.68911 | 36114 ft | 546 kts | 163° |
| 2026-04-25 21:11 | 52.79172 | 10.72941 | 36105 ft | 548 kts | 163° |
| 2026-04-25 21:11 | 52.71977 | 10.76945 | 36101 ft | 548 kts | 163° |
| 2026-04-25 21:12 | 52.64757 | 10.80949 | 36102 ft | 547 kts | 163° |
| 2026-04-25 21:12 | 52.58769 | 10.84259 | 36108 ft | 546 kts | 163° |
| 2026-04-25 21:13 | 52.50359 | 10.88892 | 36075 ft | 545 kts | 163° |
| 2026-04-25 21:13 | 52.43203 | 10.92820 | 36110 ft | 541 kts | 163° |
| 2026-04-25 21:14 | 52.36071 | 10.96720 | 36137 ft | 540 kts | 163° |
| 2026-04-25 21:14 | 52.28890 | 11.00630 | 36125 ft | 547 kts | 163° |
| 2026-04-25 21:15 | 52.21682 | 11.04544 | 36098 ft | 549 kts | 164° |
| 2026-04-25 21:15 | 52.14445 | 11.08464 | 36097 ft | 547 kts | 164° |
| 2026-04-25 21:16 | 52.07244 | 11.12350 | 36098 ft | 544 kts | 164° |
| 2026-04-25 21:16 | 52.00092 | 11.16197 | 36451 ft | 537 kts | 164° |
| 2026-04-25 21:17 | 51.96540 | 11.18103 | 36687 ft | 535 kts | 163° |
| 2026-04-25 21:17 | 51.93012 | 11.19991 | 36951 ft | 534 kts | 164° |
| 2026-04-25 21:17 | 51.89474 | 11.21881 | 37053 ft | 536 kts | 164° |
| 2026-04-25 21:17 | 51.85923 | 11.23774 | 37089 ft | 538 kts | 164° |
| 2026-04-25 21:18 | 51.78782 | 11.27574 | 37107 ft | 542 kts | 164° |
| 2026-04-25 21:18 | 51.71602 | 11.31382 | 37088 ft | 544 kts | 164° |
| 2026-04-25 21:19 | 51.64394 | 11.35193 | 37094 ft | 546 kts | 164° |
| 2026-04-25 21:19 | 51.57169 | 11.39000 | 37104 ft | 546 kts | 164° |
| 2026-04-25 21:20 | 51.51182 | 11.42148 | 37080 ft | 542 kts | 164° |
| 2026-04-25 21:20 | 51.42946 | 11.46463 | 37087 ft | 530 kts | 163° |
| 2026-04-25 21:21 | 51.35943 | 11.50116 | 37086 ft | 527 kts | 163° |
| 2026-04-25 21:21 | 51.28958 | 11.53748 | 37108 ft | 529 kts | 164° |
| 2026-04-25 21:22 | 51.21903 | 11.57401 | 37078 ft | 535 kts | 164° |
| 2026-04-25 21:22 | 51.14815 | 11.61064 | 37090 ft | 535 kts | 164° |
| 2026-04-25 21:23 | 51.07773 | 11.64693 | 37087 ft | 535 kts | 164° |
| 2026-04-25 21:23 | 51.00687 | 11.68332 | 37080 ft | 535 kts | 164° |
| 2026-04-25 21:24 | 50.93604 | 11.71957 | 37082 ft | 534 kts | 164° |
| 2026-04-25 21:24 | 50.86526 | 11.75567 | 37083 ft | 534 kts | 164° |
| 2026-04-25 21:25 | 50.79450 | 11.79166 | 37103 ft | 534 kts | 164° |
| 2026-04-25 21:25 | 50.72375 | 11.82752 | 37076 ft | 534 kts | 164° |
| 2026-04-25 21:26 | 50.65344 | 11.86305 | 37081 ft | 534 kts | 164° |
| 2026-04-25 21:26 | 50.58275 | 11.89866 | 37092 ft | 533 kts | 164° |
| 2026-04-25 21:27 | 50.51192 | 11.93423 | 37093 ft | 533 kts | 164° |
| 2026-04-25 21:27 | 50.44121 | 11.96962 | 37095 ft | 533 kts | 165° |
| 2026-04-25 21:28 | 50.37042 | 12.00494 | 37099 ft | 533 kts | 165° |
| 2026-04-25 21:28 | 50.29969 | 12.04013 | 37101 ft | 533 kts | 165° |
| 2026-04-25 21:29 | 50.22894 | 12.07521 | 37088 ft | 534 kts | 165° |
| 2026-04-25 21:29 | 50.15850 | 12.11003 | 37092 ft | 534 kts | 165° |
| 2026-04-25 21:30 | 50.08758 | 12.14498 | 37094 ft | 535 kts | 165° |
| 2026-04-25 21:30 | 50.02799 | 12.17426 | 37085 ft | 536 kts | 165° |
| 2026-04-25 21:31 | 49.94519 | 12.21483 | 37075 ft | 536 kts | 165° |
| 2026-04-25 21:31 | 49.87402 | 12.24960 | 37078 ft | 536 kts | 165° |
| 2026-04-25 21:32 | 49.80275 | 12.28430 | 37085 ft | 537 kts | 165° |
| 2026-04-25 21:32 | 49.73336 | 12.32785 | 37075 ft | 540 kts | 152° |
| 2026-04-25 21:33 | 49.67203 | 12.39497 | 37072 ft | 542 kts | 137° |
| 2026-04-25 21:33 | 49.61797 | 12.47599 | 37082 ft | 542 kts | 135° |
| 2026-04-25 21:34 | 49.56406 | 12.55730 | 37073 ft | 542 kts | 136° |
| 2026-04-25 21:34 | 49.51001 | 12.63732 | 37092 ft | 542 kts | 136° |
| 2026-04-25 21:35 | 49.45550 | 12.71706 | 37084 ft | 540 kts | 136° |
| 2026-04-25 21:35 | 49.40106 | 12.79637 | 37053 ft | 539 kts | 136° |
| 2026-04-25 21:36 | 49.34663 | 12.87550 | 37075 ft | 537 kts | 136° |
| 2026-04-25 21:36 | 49.29538 | 12.95806 | 36822 ft | 540 kts | 127° |
| 2026-04-25 21:37 | 49.27369 | 13.00505 | 36636 ft | 538 kts | 123° |
| 2026-04-25 21:37 | 49.26668 | 13.02103 | 36577 ft | 537 kts | 123° |
| 2026-04-25 21:37 | 49.23208 | 13.10007 | 36167 ft | 538 kts | 123° |
| 2026-04-25 21:37 | 49.21112 | 13.14750 | 35896 ft | 537 kts | 123° |
| 2026-04-25 21:38 | 49.19009 | 13.19462 | 35651 ft | 536 kts | 123° |
| 2026-04-25 21:38 | 49.16899 | 13.24151 | 35406 ft | 535 kts | 123° |
| 2026-04-25 21:38 | 49.14777 | 13.28841 | 35155 ft | 535 kts | 123° |
| 2026-04-25 21:38 | 49.12663 | 13.33498 | 34920 ft | 534 kts | 123° |
| 2026-04-25 21:39 | 49.10546 | 13.38153 | 34695 ft | 534 kts | 124° |
| 2026-04-25 21:39 | 49.08423 | 13.42813 | 34461 ft | 535 kts | 124° |
| 2026-04-25 21:39 | 49.06299 | 13.47470 | 34221 ft | 535 kts | 124° |
| 2026-04-25 21:39 | 49.04196 | 13.52077 | 33986 ft | 536 kts | 124° |
| 2026-04-25 21:40 | 49.02062 | 13.56744 | 33708 ft | 537 kts | 124° |
| 2026-04-25 21:40 | 48.99918 | 13.61426 | 33454 ft | 538 kts | 124° |
| 2026-04-25 21:40 | 48.97770 | 13.66109 | 33186 ft | 539 kts | 124° |
| 2026-04-25 21:40 | 48.95623 | 13.70780 | 32927 ft | 539 kts | 124° |
| 2026-04-25 21:41 | 48.94200 | 13.73872 | 32752 ft | 539 kts | 124° |
| 2026-04-25 21:41 | 48.92042 | 13.78553 | 32511 ft | 541 kts | 124° |
| 2026-04-25 21:41 | 48.89881 | 13.83234 | 32230 ft | 540 kts | 124° |
| 2026-04-25 21:41 | 48.87724 | 13.87894 | 31967 ft | 536 kts | 124° |
| 2026-04-25 21:42 | 48.85581 | 13.92519 | 31709 ft | 533 kts | 124° |
| 2026-04-25 21:42 | 48.83442 | 13.97128 | 31466 ft | 535 kts | 124° |
| 2026-04-25 21:42 | 48.81288 | 14.01762 | 31215 ft | 537 kts | 124° |
| 2026-04-25 21:42 | 48.79128 | 14.06400 | 30972 ft | 537 kts | 124° |
| 2026-04-25 21:43 | 48.76990 | 14.10981 | 30737 ft | 526 kts | 124° |
| 2026-04-25 21:43 | 48.74927 | 14.15394 | 30456 ft | 513 kts | 124° |
| 2026-04-25 21:43 | 48.72888 | 14.19749 | 30198 ft | 501 kts | 124° |
| 2026-04-25 21:43 | 48.70891 | 14.24007 | 29896 ft | 491 kts | 124° |
| 2026-04-25 21:44 | 48.68934 | 14.28176 | 29595 ft | 480 kts | 124° |
| 2026-04-25 21:44 | 48.67016 | 14.32255 | 29294 ft | 471 kts | 124° |
| 2026-04-25 21:44 | 48.63289 | 14.40167 | 28714 ft | 453 kts | 124° |
| 2026-04-25 21:45 | 48.61480 | 14.44001 | 28552 ft | 442 kts | 124° |
| 2026-04-25 21:45 | 48.60306 | 14.46485 | 28447 ft | 434 kts | 124° |
| 2026-04-25 21:45 | 48.58001 | 14.51365 | 28243 ft | 417 kts | 122° |
| 2026-04-25 21:45 | 48.56728 | 14.55232 | 27870 ft | 406 kts | 102° |
| 2026-04-25 21:46 | 48.56321 | 14.59356 | 27675 ft | 390 kts | 90° |
| 2026-04-25 21:46 | 48.56174 | 14.63355 | 27412 ft | 383 kts | 90° |
| 2026-04-25 21:46 | 48.56016 | 14.67318 | 26926 ft | 375 kts | 90° |
| 2026-04-25 21:46 | 48.55832 | 14.71263 | 26288 ft | 379 kts | 91° |
| 2026-04-25 21:47 | 48.55632 | 14.75225 | 25816 ft | 375 kts | 91° |
| 2026-04-25 21:47 | 48.55430 | 14.79110 | 25267 ft | 367 kts | 91° |
| 2026-04-25 21:47 | 48.55235 | 14.82964 | 24610 ft | 371 kts | 91° |
| 2026-04-25 21:47 | 48.55041 | 14.86849 | 24201 ft | 370 kts | 91° |
| 2026-04-25 21:48 | 48.54848 | 14.90672 | 23896 ft | 359 kts | 91° |
| 2026-04-25 21:48 | 48.54656 | 14.94422 | 23342 ft | 360 kts | 91° |
| 2026-04-25 21:48 | 48.54462 | 14.98206 | 22746 ft | 364 kts | 91° |
| 2026-04-25 21:48 | 48.54266 | 15.02001 | 22130 ft | 369 kts | 91° |
| 2026-04-25 21:49 | 48.54064 | 15.05878 | 21616 ft | 371 kts | 91° |
| 2026-04-25 21:49 | 48.53858 | 15.09803 | 20857 ft | 380 kts | 91° |
| 2026-04-25 21:49 | 48.53646 | 15.13825 | 20255 ft | 386 kts | 92° |
| 2026-04-25 21:49 | 48.53430 | 15.17862 | 19833 ft | 386 kts | 92° |
| 2026-04-25 21:50 | 48.53213 | 15.21930 | 19422 ft | 392 kts | 92° |
| 2026-04-25 21:50 | 48.52993 | 15.26012 | 18989 ft | 397 kts | 92° |
| 2026-04-25 21:50 | 48.52717 | 15.30171 | 18583 ft | 399 kts | 97° |
| 2026-04-25 21:50 | 48.52340 | 15.32940 | 18371 ft | 399 kts | 103° |
| 2026-04-25 21:51 | 48.51320 | 15.38228 | 18007 ft | 394 kts | 105° |
| 2026-04-25 21:51 | 48.50554 | 15.42187 | 17681 ft | 392 kts | 104° |
| 2026-04-25 21:51 | 48.49798 | 15.46127 | 17339 ft | 390 kts | 104° |
| 2026-04-25 21:51 | 48.49049 | 15.50056 | 16997 ft | 389 kts | 104° |
| 2026-04-25 21:52 | 48.48306 | 15.53960 | 16654 ft | 387 kts | 104° |
| 2026-04-25 21:52 | 48.47566 | 15.57860 | 16311 ft | 386 kts | 104° |
| 2026-04-25 21:52 | 48.46831 | 15.61744 | 16016 ft | 384 kts | 104° |
| 2026-04-25 21:52 | 48.46099 | 15.65602 | 15747 ft | 382 kts | 104° |
| 2026-04-25 21:53 | 48.45369 | 15.69434 | 15494 ft | 379 kts | 104° |
| 2026-04-25 21:53 | 48.44641 | 15.73247 | 15246 ft | 379 kts | 104° |
| 2026-04-25 21:53 | 48.43907 | 15.77089 | 15014 ft | 381 kts | 104° |
| 2026-04-25 21:53 | 48.43181 | 15.80882 | 14779 ft | 382 kts | 104° |
| 2026-04-25 21:54 | 48.42443 | 15.84726 | 14515 ft | 382 kts | 104° |
| 2026-04-25 21:54 | 48.41701 | 15.88585 | 14152 ft | 383 kts | 104° |
| 2026-04-25 21:54 | 48.40960 | 15.92429 | 13798 ft | 381 kts | 104° |
| 2026-04-25 21:54 | 48.40225 | 15.96234 | 13408 ft | 377 kts | 104° |
| 2026-04-25 21:55 | 48.39497 | 15.99995 | 13073 ft | 371 kts | 105° |
| 2026-04-25 21:55 | 48.38780 | 16.03694 | 12837 ft | 363 kts | 105° |
| 2026-04-25 21:55 | 48.38079 | 16.07297 | 12640 ft | 355 kts | 105° |
| 2026-04-25 21:55 | 48.37394 | 16.10818 | 12454 ft | 347 kts | 105° |
| 2026-04-25 21:56 | 48.36724 | 16.14256 | 12283 ft | 338 kts | 105° |
| 2026-04-25 21:56 | 48.36286 | 16.16496 | 12149 ft | 333 kts | 105° |
| 2026-04-25 21:56 | 48.35429 | 16.20885 | 11798 ft | 327 kts | 105° |
| 2026-04-25 21:56 | 48.34788 | 16.24156 | 11543 ft | 325 kts | 105° |
| 2026-04-25 21:57 | 48.34152 | 16.27397 | 11299 ft | 323 kts | 105° |
| 2026-04-25 21:57 | 48.33519 | 16.30619 | 11041 ft | 320 kts | 105° |
| 2026-04-25 21:57 | 48.32889 | 16.33823 | 10799 ft | 318 kts | 105° |
| 2026-04-25 21:57 | 48.32264 | 16.36996 | 10561 ft | 316 kts | 105° |
| 2026-04-25 21:58 | 48.31639 | 16.40163 | 10286 ft | 315 kts | 105° |
| 2026-04-25 21:58 | 48.31016 | 16.43313 | 9960 ft | 315 kts | 105° |
| 2026-04-25 21:58 | 48.30390 | 16.46467 | 9637 ft | 313 kts | 105° |
| 2026-04-25 21:58 | 48.29684 | 16.49518 | 9356 ft | 308 kts | 119° |
| 2026-04-25 21:59 | 48.28315 | 16.51947 | 9082 ft | 304 kts | 144° |
| 2026-04-25 21:59 | 48.26602 | 16.53828 | 8869 ft | 306 kts | 146° |
| 2026-04-25 21:59 | 48.24898 | 16.55720 | 8646 ft | 301 kts | 145° |
| 2026-04-25 22:00 | 48.21685 | 16.59336 | 8428 ft | 281 kts | 145° |
| 2026-04-25 22:00 | 48.20148 | 16.61068 | 8267 ft | 273 kts | 145° |
| 2026-04-25 22:00 | 48.18666 | 16.62792 | 8010 ft | 266 kts | 137° |
| 2026-04-25 22:00 | 48.17640 | 16.65051 | 7718 ft | 262 kts | 114° |
| 2026-04-25 22:01 | 48.16867 | 16.67560 | 7540 ft | 269 kts | 115° |
| 2026-04-25 22:01 | 48.16043 | 16.70099 | 7349 ft | 271 kts | 116° |
| 2026-04-25 22:01 | 48.15210 | 16.72637 | 7051 ft | 272 kts | 116° |
| 2026-04-25 22:01 | 48.14654 | 16.74323 | 6887 ft | 270 kts | 116° |
| 2026-04-25 22:02 | 48.13552 | 16.77663 | 6517 ft | 266 kts | 116° |
| 2026-04-25 22:02 | 48.12734 | 16.80134 | 6201 ft | 264 kts | 116° |
| 2026-04-25 22:02 | 48.11916 | 16.82598 | 5881 ft | 263 kts | 116° |
| 2026-04-25 22:02 | 48.11118 | 16.85000 | 5633 ft | 258 kts | 116° |
| 2026-04-25 22:03 | 48.10329 | 16.87377 | 5391 ft | 252 kts | 115° |
| 2026-04-25 22:03 | 48.09555 | 16.89704 | 5148 ft | 247 kts | 115° |
| 2026-04-25 22:03 | 48.08793 | 16.91992 | 4971 ft | 244 kts | 115° |
| 2026-04-25 22:03 | 48.07972 | 16.94230 | 4815 ft | 248 kts | 129° |
| 2026-04-25 22:04 | 48.06616 | 16.95808 | 4645 ft | 250 kts | 163° |
| 2026-04-25 22:04 | 48.04943 | 16.96132 | 4552 ft | 240 kts | 195° |
| 2026-04-25 22:04 | 48.03431 | 16.95279 | 4457 ft | 229 kts | 224° |
| 2026-04-25 22:04 | 48.02495 | 16.93485 | 4338 ft | 215 kts | 256° |
| 2026-04-25 22:05 | 48.02161 | 16.91365 | 4270 ft | 208 kts | 265° |
| 2026-04-25 22:05 | 48.01899 | 16.89274 | 4169 ft | 201 kts | 265° |
| 2026-04-25 22:05 | 48.01701 | 16.87296 | 4141 ft | 183 kts | 278° |
| 2026-04-25 22:05 | 48.02022 | 16.85551 | 4063 ft | 171 kts | 293° |
| 2026-04-25 22:06 | 48.02431 | 16.83895 | 3988 ft | 168 kts | 295° |
| 2026-04-25 22:06 | 48.02890 | 16.82302 | 4009 ft | 167 kts | 296° |
| 2026-04-25 22:06 | 48.03379 | 16.80734 | 3904 ft | 172 kts | 297° |
| 2026-04-25 22:06 | 48.03897 | 16.79119 | 3686 ft | 171 kts | 297° |
| 2026-04-25 22:07 | 48.04415 | 16.77525 | 3471 ft | 169 kts | 298° |
| 2026-04-25 22:07 | 48.04761 | 16.76460 | 3320 ft | 167 kts | 298° |
| 2026-04-25 22:07 | 48.05424 | 16.74419 | 3024 ft | 164 kts | 298° |
| 2026-04-25 22:07 | 48.05927 | 16.72880 | 2816 ft | 165 kts | 297° |
| 2026-04-25 22:08 | 48.06430 | 16.71337 | 2597 ft | 164 kts | 297° |
| 2026-04-25 22:08 | 48.06920 | 16.69830 | 2375 ft | 157 kts | 296° |
| 2026-04-25 22:08 | 48.07377 | 16.68427 | 2182 ft | 143 kts | 296° |
| 2026-04-25 22:08 | 48.07788 | 16.67162 | 1997 ft | 128 kts | 296° |
| 2026-04-25 22:09 | 48.08161 | 16.66012 | 1852 ft | 122 kts | 296° |
| 2026-04-25 22:09 | 48.08542 | 16.64847 | 1695 ft | 129 kts | 296° |
| 2026-04-25 22:09 | 48.08944 | 16.63610 | 1512 ft | 132 kts | 296° |
| 2026-04-25 22:09 | 48.09351 | 16.62313 | 1350 ft | 141 kts | 296° |
| 2026-04-25 22:10 | 48.09795 | 16.60973 | 1142 ft | 144 kts | 297° |
| 2026-04-25 22:10 | 48.10227 | 16.59649 | 936 ft | 140 kts | 296° |
| 2026-04-25 22:10 | 48.10650 | 16.58340 | 763 ft | 143 kts | 295° |
| 2026-04-25 22:10 | 48.11097 | 16.56977 | 629 ft | 140 kts | 294° |
| 2026-04-25 22:11 | 48.11457 | 16.55870 | 623 ft | 87 kts | 296° |
| 2026-04-25 22:11 | 48.11625 | 16.55395 | 628 ft | 38 kts | 310° |
| 2026-04-25 22:11 | 48.11764 | 16.55194 | 628 ft | 8 kts | 318° |
| 2026-04-25 22:11 | 48.11849 | 16.55140 | 625 ft | 19 kts | 360° |
| 2026-04-25 22:12 | 48.11879 | 16.55219 | 624 ft | 10 kts | 115° |
| 2026-04-25 22:12 | 48.11850 | 16.55312 | 621 ft | 10 kts | 115° |
| 2026-04-25 22:12 | 48.11813 | 16.55424 | 624 ft | 15 kts | 120° |
| 2026-04-25 22:12 | 48.11780 | 16.55519 | 621 ft | 16 kts | 116° |
| 2026-04-25 22:13 | 48.11717 | 16.55716 | 626 ft | 16 kts | 115° |
| 2026-04-25 22:13 | 48.11670 | 16.55863 | 628 ft | 16 kts | 115° |
| 2026-04-25 22:13 | 48.11617 | 16.56029 | 624 ft | 18 kts | 115° |
| 2026-04-25 22:13 | 48.11628 | 16.56200 | 626 ft | 19 kts | 45° |
| 2026-04-25 22:14 | 48.11730 | 16.56298 | 628 ft | 13 kts | 33° |
| 2026-04-25 22:14 | 48.11744 | 16.56396 | 628 ft | 5 kts | 108° |
| 2026-04-25 22:14 | 48.11743 | 16.56400 | 628 ft | 0 kts | 109° |
| 2026-04-25 22:16 | 48.11743 | 16.56402 | 628 ft | 0 kts | 109° |
| 2026-04-25 22:16 | 48.11741 | 16.56408 | 625 ft | 1 kts | 109° |
| 2026-04-25 22:17 | 48.11739 | 16.56419 | 624 ft | 1 kts | 109° |
| 2026-04-25 22:17 | 48.11735 | 16.56433 | 626 ft | 2 kts | 111° |
| 2026-04-25 22:17 | 48.11730 | 16.56452 | 624 ft | 2 kts | 113° |
| 2026-04-25 22:17 | 48.11723 | 16.56477 | 625 ft | 4 kts | 115° |
| 2026-04-25 22:18 | 48.11700 | 16.56549 | 622 ft | 9 kts | 115° |
| 2026-04-25 22:18 | 48.11674 | 16.56632 | 628 ft | 9 kts | 117° |
| 2026-04-25 22:18 | 48.11648 | 16.56710 | 623 ft | 6 kts | 116° |
| 2026-04-25 22:18 | 48.11631 | 16.56759 | 617 ft | 5 kts | 116° |
| 2026-04-25 22:19 | 48.11618 | 16.56798 | 623 ft | 4 kts | 116° |
| 2026-04-25 22:19 | 48.11606 | 16.56837 | 620 ft | 4 kts | 111° |
| 2026-04-25 22:19 | 48.11616 | 16.56878 | 616 ft | 4 kts | 49° |
| 2026-04-25 22:19 | 48.11642 | 16.56902 | 621 ft | 5 kts | 25° |
| 2026-04-25 22:20 | 48.11669 | 16.56922 | 628 ft | 2 kts | 26° |
| 2026-04-25 22:20 | 48.11670 | 16.56922 | 628 ft | 0 kts | 26° |